<?xml version="1.0" encoding="UTF-8" standalone="no" ?>
<gpx xmlns="http://www.topografix.com/GPX/1/1" xmlns:xsi="http://www.w3.org/2001/XMLSchema-instance" xsi:schemaLocation="http://www.topografix.com/GPX/1/1 http://www.topografix.com/GPX/1/1/gpx.xsd" version="1.1" creator="VisuGPX - https://www.visugpx.com">
  <metadata>
    <name>Baccarat, Deneuvre</name>
    <desc><![CDATA[Baccarat stade Georges Humbert, moulin de Deneuvre, carrefour des Trois Croix, ferme de la Moncelle, abords du champs de tir, les Fouilles, sentier des morts, musée de Deneuvre]]></desc>
  </metadata>
  <trk>
    <name><![CDATA[2018-10-18 17:11:20]]></name>
    <trkseg>
      <trkpt lat="48.44265" lon="6.74201">
        <ele>275.07</ele>
        <time>2018-10-18T11:35:32Z</time>
      </trkpt>
      <trkpt lat="48.44261" lon="6.74187">
        <ele>275.07</ele>
        <time>2018-10-18T11:35:44Z</time>
      </trkpt>
      <trkpt lat="48.44257" lon="6.74173">
        <ele>275.07</ele>
        <time>2018-10-18T11:35:54Z</time>
      </trkpt>
      <trkpt lat="48.44255" lon="6.74159">
        <ele>275.07</ele>
        <time>2018-10-18T11:36:03Z</time>
      </trkpt>
      <trkpt lat="48.44252" lon="6.74146">
        <ele>275.07</ele>
        <time>2018-10-18T11:36:12Z</time>
      </trkpt>
      <trkpt lat="48.44251" lon="6.74132">
        <ele>275.07</ele>
        <time>2018-10-18T11:36:21Z</time>
      </trkpt>
      <trkpt lat="48.44252" lon="6.74117">
        <ele>275.07</ele>
        <time>2018-10-18T11:36:30Z</time>
      </trkpt>
      <trkpt lat="48.44257" lon="6.74105">
        <ele>275.07</ele>
        <time>2018-10-18T11:36:38Z</time>
      </trkpt>
      <trkpt lat="48.44265" lon="6.74096">
        <ele>274.59</ele>
        <time>2018-10-18T11:36:47Z</time>
      </trkpt>
      <trkpt lat="48.44274" lon="6.74091">
        <ele>274.59</ele>
        <time>2018-10-18T11:36:56Z</time>
      </trkpt>
      <trkpt lat="48.44284" lon="6.74087">
        <ele>274.11</ele>
        <time>2018-10-18T11:37:05Z</time>
      </trkpt>
      <trkpt lat="48.44294" lon="6.74083">
        <ele>274.11</ele>
        <time>2018-10-18T11:37:14Z</time>
      </trkpt>
      <trkpt lat="48.44294" lon="6.74067">
        <ele>274.11</ele>
        <time>2018-10-18T11:37:22Z</time>
      </trkpt>
      <trkpt lat="48.44292" lon="6.74054">
        <ele>274.11</ele>
        <time>2018-10-18T11:37:30Z</time>
      </trkpt>
      <trkpt lat="48.44289" lon="6.74042">
        <ele>274.11</ele>
        <time>2018-10-18T11:37:38Z</time>
      </trkpt>
      <trkpt lat="48.44288" lon="6.74027">
        <ele>274.59</ele>
        <time>2018-10-18T11:37:46Z</time>
      </trkpt>
      <trkpt lat="48.44287" lon="6.74012">
        <ele>274.11</ele>
        <time>2018-10-18T11:37:54Z</time>
      </trkpt>
      <trkpt lat="48.44289" lon="6.73997">
        <ele>274.11</ele>
        <time>2018-10-18T11:38:02Z</time>
      </trkpt>
      <trkpt lat="48.44288" lon="6.73983">
        <ele>274.11</ele>
        <time>2018-10-18T11:38:10Z</time>
      </trkpt>
      <trkpt lat="48.44281" lon="6.73972">
        <ele>274.11</ele>
        <time>2018-10-18T11:38:18Z</time>
      </trkpt>
      <trkpt lat="48.44271" lon="6.73972">
        <ele>274.59</ele>
        <time>2018-10-18T11:38:27Z</time>
      </trkpt>
      <trkpt lat="48.4426" lon="6.73974">
        <ele>274.59</ele>
        <time>2018-10-18T11:38:36Z</time>
      </trkpt>
      <trkpt lat="48.4425" lon="6.73976">
        <ele>275.07</ele>
        <time>2018-10-18T11:38:44Z</time>
      </trkpt>
      <trkpt lat="48.44242" lon="6.73975">
        <ele>275.07</ele>
        <time>2018-10-18T11:38:51Z</time>
      </trkpt>
      <trkpt lat="48.44234" lon="6.73968">
        <ele>275.56</ele>
        <time>2018-10-18T11:38:59Z</time>
      </trkpt>
      <trkpt lat="48.44225" lon="6.73961">
        <ele>275.56</ele>
        <time>2018-10-18T11:39:07Z</time>
      </trkpt>
      <trkpt lat="48.44218" lon="6.73954">
        <ele>275.56</ele>
        <time>2018-10-18T11:39:15Z</time>
      </trkpt>
      <trkpt lat="48.44209" lon="6.73946">
        <ele>276.04</ele>
        <time>2018-10-18T11:39:23Z</time>
      </trkpt>
      <trkpt lat="48.44202" lon="6.73939">
        <ele>276.52</ele>
        <time>2018-10-18T11:39:32Z</time>
      </trkpt>
      <trkpt lat="48.44192" lon="6.73935">
        <ele>277</ele>
        <time>2018-10-18T11:39:40Z</time>
      </trkpt>
      <trkpt lat="48.44185" lon="6.73924">
        <ele>277.48</ele>
        <time>2018-10-18T11:39:48Z</time>
      </trkpt>
      <trkpt lat="48.44181" lon="6.73911">
        <ele>277.96</ele>
        <time>2018-10-18T11:39:56Z</time>
      </trkpt>
      <trkpt lat="48.44177" lon="6.73898">
        <ele>278.44</ele>
        <time>2018-10-18T11:40:04Z</time>
      </trkpt>
      <trkpt lat="48.44173" lon="6.73884">
        <ele>279.88</ele>
        <time>2018-10-18T11:40:13Z</time>
      </trkpt>
      <trkpt lat="48.44169" lon="6.7387">
        <ele>280.36</ele>
        <time>2018-10-18T11:40:21Z</time>
      </trkpt>
      <trkpt lat="48.44165" lon="6.73857">
        <ele>281.32</ele>
        <time>2018-10-18T11:40:30Z</time>
      </trkpt>
      <trkpt lat="48.44157" lon="6.73854">
        <ele>282.28</ele>
        <time>2018-10-18T11:40:39Z</time>
      </trkpt>
      <trkpt lat="48.44148" lon="6.7386">
        <ele>283.73</ele>
        <time>2018-10-18T11:40:49Z</time>
      </trkpt>
      <trkpt lat="48.44138" lon="6.73865">
        <ele>284.69</ele>
        <time>2018-10-18T11:40:58Z</time>
      </trkpt>
      <trkpt lat="48.44131" lon="6.73856">
        <ele>285.65</ele>
        <time>2018-10-18T11:41:06Z</time>
      </trkpt>
      <trkpt lat="48.44124" lon="6.73846">
        <ele>286.61</ele>
        <time>2018-10-18T11:41:14Z</time>
      </trkpt>
      <trkpt lat="48.44118" lon="6.73837">
        <ele>287.57</ele>
        <time>2018-10-18T11:41:23Z</time>
      </trkpt>
      <trkpt lat="48.44112" lon="6.73826">
        <ele>289.01</ele>
        <time>2018-10-18T11:41:33Z</time>
      </trkpt>
      <trkpt lat="48.44105" lon="6.73816">
        <ele>290.94</ele>
        <time>2018-10-18T11:41:46Z</time>
      </trkpt>
      <trkpt lat="48.44102" lon="6.73802">
        <ele>293.34</ele>
        <time>2018-10-18T11:42:00Z</time>
      </trkpt>
      <trkpt lat="48.44099" lon="6.7379">
        <ele>295.74</ele>
        <time>2018-10-18T11:42:14Z</time>
      </trkpt>
      <trkpt lat="48.44095" lon="6.73777">
        <ele>298.63</ele>
        <time>2018-10-18T11:42:31Z</time>
      </trkpt>
      <trkpt lat="48.44092" lon="6.73764">
        <ele>301.03</ele>
        <time>2018-10-18T11:42:50Z</time>
      </trkpt>
      <trkpt lat="48.4409" lon="6.73751">
        <ele>303.43</ele>
        <time>2018-10-18T11:43:04Z</time>
      </trkpt>
      <trkpt lat="48.44089" lon="6.73738">
        <ele>304.39</ele>
        <time>2018-10-18T11:43:28Z</time>
      </trkpt>
      <trkpt lat="48.44079" lon="6.73732">
        <ele>304.39</ele>
        <time>2018-10-18T11:43:37Z</time>
      </trkpt>
      <trkpt lat="48.4407" lon="6.73735">
        <ele>303.91</ele>
        <time>2018-10-18T11:43:46Z</time>
      </trkpt>
      <trkpt lat="48.44061" lon="6.73738">
        <ele>303.91</ele>
        <time>2018-10-18T11:44:04Z</time>
      </trkpt>
      <trkpt lat="48.44052" lon="6.73742">
        <ele>303.43</ele>
        <time>2018-10-18T11:44:13Z</time>
      </trkpt>
      <trkpt lat="48.44044" lon="6.73745">
        <ele>302.47</ele>
        <time>2018-10-18T11:44:22Z</time>
      </trkpt>
      <trkpt lat="48.44035" lon="6.73748">
        <ele>302.47</ele>
        <time>2018-10-18T11:44:30Z</time>
      </trkpt>
      <trkpt lat="48.44026" lon="6.73753">
        <ele>302.47</ele>
        <time>2018-10-18T11:44:41Z</time>
      </trkpt>
      <trkpt lat="48.44017" lon="6.73764">
        <ele>301.99</ele>
        <time>2018-10-18T11:45:06Z</time>
      </trkpt>
      <trkpt lat="48.44009" lon="6.73767">
        <ele>302.47</ele>
        <time>2018-10-18T11:45:21Z</time>
      </trkpt>
      <trkpt lat="48.44002" lon="6.73776">
        <ele>302.47</ele>
        <time>2018-10-18T11:45:40Z</time>
      </trkpt>
      <trkpt lat="48.43995" lon="6.73787">
        <ele>302.47</ele>
        <time>2018-10-18T11:45:48Z</time>
      </trkpt>
      <trkpt lat="48.43989" lon="6.73796">
        <ele>302.47</ele>
        <time>2018-10-18T11:45:55Z</time>
      </trkpt>
      <trkpt lat="48.43982" lon="6.73806">
        <ele>302.95</ele>
        <time>2018-10-18T11:46:03Z</time>
      </trkpt>
      <trkpt lat="48.43974" lon="6.73813">
        <ele>302.95</ele>
        <time>2018-10-18T11:46:10Z</time>
      </trkpt>
      <trkpt lat="48.43967" lon="6.73822">
        <ele>303.43</ele>
        <time>2018-10-18T11:46:18Z</time>
      </trkpt>
      <trkpt lat="48.4396" lon="6.73831">
        <ele>303.43</ele>
        <time>2018-10-18T11:46:26Z</time>
      </trkpt>
      <trkpt lat="48.43952" lon="6.73839">
        <ele>303.91</ele>
        <time>2018-10-18T11:46:34Z</time>
      </trkpt>
      <trkpt lat="48.43946" lon="6.73849">
        <ele>303.91</ele>
        <time>2018-10-18T11:46:42Z</time>
      </trkpt>
      <trkpt lat="48.43939" lon="6.73861">
        <ele>303.91</ele>
        <time>2018-10-18T11:46:51Z</time>
      </trkpt>
      <trkpt lat="48.43931" lon="6.73872">
        <ele>304.39</ele>
        <time>2018-10-18T11:46:59Z</time>
      </trkpt>
      <trkpt lat="48.43923" lon="6.73881">
        <ele>304.39</ele>
        <time>2018-10-18T11:47:07Z</time>
      </trkpt>
      <trkpt lat="48.43916" lon="6.73889">
        <ele>304.39</ele>
        <time>2018-10-18T11:47:15Z</time>
      </trkpt>
      <trkpt lat="48.43908" lon="6.73896">
        <ele>304.88</ele>
        <time>2018-10-18T11:47:23Z</time>
      </trkpt>
      <trkpt lat="48.439" lon="6.73904">
        <ele>304.88</ele>
        <time>2018-10-18T11:47:31Z</time>
      </trkpt>
      <trkpt lat="48.43891" lon="6.7391">
        <ele>305.36</ele>
        <time>2018-10-18T11:47:40Z</time>
      </trkpt>
      <trkpt lat="48.43881" lon="6.73917">
        <ele>305.84</ele>
        <time>2018-10-18T11:47:48Z</time>
      </trkpt>
      <trkpt lat="48.43872" lon="6.73923">
        <ele>305.84</ele>
        <time>2018-10-18T11:47:56Z</time>
      </trkpt>
      <trkpt lat="48.43862" lon="6.73928">
        <ele>306.32</ele>
        <time>2018-10-18T11:48:04Z</time>
      </trkpt>
      <trkpt lat="48.43854" lon="6.73934">
        <ele>306.32</ele>
        <time>2018-10-18T11:48:12Z</time>
      </trkpt>
      <trkpt lat="48.43846" lon="6.73942">
        <ele>307.28</ele>
        <time>2018-10-18T11:48:20Z</time>
      </trkpt>
      <trkpt lat="48.43838" lon="6.73951">
        <ele>307.76</ele>
        <time>2018-10-18T11:48:28Z</time>
      </trkpt>
      <trkpt lat="48.43831" lon="6.73961">
        <ele>308.24</ele>
        <time>2018-10-18T11:48:36Z</time>
      </trkpt>
      <trkpt lat="48.43825" lon="6.73971">
        <ele>308.72</ele>
        <time>2018-10-18T11:48:44Z</time>
      </trkpt>
      <trkpt lat="48.43819" lon="6.73982">
        <ele>308.72</ele>
        <time>2018-10-18T11:48:52Z</time>
      </trkpt>
      <trkpt lat="48.43813" lon="6.73993">
        <ele>309.68</ele>
        <time>2018-10-18T11:49:00Z</time>
      </trkpt>
      <trkpt lat="48.4381" lon="6.74005">
        <ele>310.16</ele>
        <time>2018-10-18T11:49:08Z</time>
      </trkpt>
      <trkpt lat="48.43807" lon="6.74017">
        <ele>311.12</ele>
        <time>2018-10-18T11:49:16Z</time>
      </trkpt>
      <trkpt lat="48.43805" lon="6.7403">
        <ele>311.6</ele>
        <time>2018-10-18T11:49:24Z</time>
      </trkpt>
      <trkpt lat="48.43804" lon="6.74043">
        <ele>312.57</ele>
        <time>2018-10-18T11:49:32Z</time>
      </trkpt>
      <trkpt lat="48.43801" lon="6.74055">
        <ele>313.53</ele>
        <time>2018-10-18T11:49:41Z</time>
      </trkpt>
      <trkpt lat="48.438" lon="6.74069">
        <ele>314.01</ele>
        <time>2018-10-18T11:49:50Z</time>
      </trkpt>
      <trkpt lat="48.43799" lon="6.74085">
        <ele>314.97</ele>
        <time>2018-10-18T11:49:58Z</time>
      </trkpt>
      <trkpt lat="48.43794" lon="6.74098">
        <ele>315.93</ele>
        <time>2018-10-18T11:50:08Z</time>
      </trkpt>
      <trkpt lat="48.43789" lon="6.74112">
        <ele>316.89</ele>
        <time>2018-10-18T11:50:19Z</time>
      </trkpt>
      <trkpt lat="48.43784" lon="6.74126">
        <ele>317.85</ele>
        <time>2018-10-18T11:50:29Z</time>
      </trkpt>
      <trkpt lat="48.43775" lon="6.74137">
        <ele>318.81</ele>
        <time>2018-10-18T11:50:39Z</time>
      </trkpt>
      <trkpt lat="48.43765" lon="6.74145">
        <ele>319.78</ele>
        <time>2018-10-18T11:50:49Z</time>
      </trkpt>
      <trkpt lat="48.43756" lon="6.74149">
        <ele>320.74</ele>
        <time>2018-10-18T11:50:58Z</time>
      </trkpt>
      <trkpt lat="48.43746" lon="6.74156">
        <ele>321.7</ele>
        <time>2018-10-18T11:51:08Z</time>
      </trkpt>
      <trkpt lat="48.43738" lon="6.74165">
        <ele>322.18</ele>
        <time>2018-10-18T11:51:17Z</time>
      </trkpt>
      <trkpt lat="48.4373" lon="6.74175">
        <ele>322.66</ele>
        <time>2018-10-18T11:51:27Z</time>
      </trkpt>
      <trkpt lat="48.43722" lon="6.74182">
        <ele>323.14</ele>
        <time>2018-10-18T11:51:36Z</time>
      </trkpt>
      <trkpt lat="48.43714" lon="6.7419">
        <ele>323.14</ele>
        <time>2018-10-18T11:51:45Z</time>
      </trkpt>
      <trkpt lat="48.43707" lon="6.742">
        <ele>323.62</ele>
        <time>2018-10-18T11:51:54Z</time>
      </trkpt>
      <trkpt lat="48.437" lon="6.74211">
        <ele>324.1</ele>
        <time>2018-10-18T11:52:03Z</time>
      </trkpt>
      <trkpt lat="48.43693" lon="6.74222">
        <ele>324.58</ele>
        <time>2018-10-18T11:52:12Z</time>
      </trkpt>
      <trkpt lat="48.43686" lon="6.74234">
        <ele>324.58</ele>
        <time>2018-10-18T11:52:21Z</time>
      </trkpt>
      <trkpt lat="48.43681" lon="6.74245">
        <ele>325.06</ele>
        <time>2018-10-18T11:52:29Z</time>
      </trkpt>
      <trkpt lat="48.43677" lon="6.74258">
        <ele>325.54</ele>
        <time>2018-10-18T11:52:38Z</time>
      </trkpt>
      <trkpt lat="48.43673" lon="6.74271">
        <ele>326.02</ele>
        <time>2018-10-18T11:52:48Z</time>
      </trkpt>
      <trkpt lat="48.43666" lon="6.74288">
        <ele>326.02</ele>
        <time>2018-10-18T11:52:59Z</time>
      </trkpt>
      <trkpt lat="48.43658" lon="6.74301">
        <ele>326.02</ele>
        <time>2018-10-18T11:53:08Z</time>
      </trkpt>
      <trkpt lat="48.43651" lon="6.74315">
        <ele>325.54</ele>
        <time>2018-10-18T11:53:18Z</time>
      </trkpt>
      <trkpt lat="48.43642" lon="6.74325">
        <ele>325.54</ele>
        <time>2018-10-18T11:53:26Z</time>
      </trkpt>
      <trkpt lat="48.43632" lon="6.74336">
        <ele>325.54</ele>
        <time>2018-10-18T11:53:34Z</time>
      </trkpt>
      <trkpt lat="48.43619" lon="6.74346">
        <ele>325.54</ele>
        <time>2018-10-18T11:53:43Z</time>
      </trkpt>
      <trkpt lat="48.43608" lon="6.74352">
        <ele>325.06</ele>
        <time>2018-10-18T11:53:51Z</time>
      </trkpt>
      <trkpt lat="48.43597" lon="6.7436">
        <ele>325.06</ele>
        <time>2018-10-18T11:54:01Z</time>
      </trkpt>
      <trkpt lat="48.43588" lon="6.74369">
        <ele>324.58</ele>
        <time>2018-10-18T11:54:10Z</time>
      </trkpt>
      <trkpt lat="48.43578" lon="6.74376">
        <ele>324.58</ele>
        <time>2018-10-18T11:54:20Z</time>
      </trkpt>
      <trkpt lat="48.43568" lon="6.74382">
        <ele>324.1</ele>
        <time>2018-10-18T11:54:28Z</time>
      </trkpt>
      <trkpt lat="48.43559" lon="6.74388">
        <ele>323.62</ele>
        <time>2018-10-18T11:54:36Z</time>
      </trkpt>
      <trkpt lat="48.4355" lon="6.74394">
        <ele>323.14</ele>
        <time>2018-10-18T11:54:45Z</time>
      </trkpt>
      <trkpt lat="48.4354" lon="6.74404">
        <ele>323.62</ele>
        <time>2018-10-18T11:54:55Z</time>
      </trkpt>
      <trkpt lat="48.43531" lon="6.74412">
        <ele>323.14</ele>
        <time>2018-10-18T11:55:03Z</time>
      </trkpt>
      <trkpt lat="48.43523" lon="6.74423">
        <ele>323.14</ele>
        <time>2018-10-18T11:55:11Z</time>
      </trkpt>
      <trkpt lat="48.43517" lon="6.74434">
        <ele>323.14</ele>
        <time>2018-10-18T11:55:20Z</time>
      </trkpt>
      <trkpt lat="48.43519" lon="6.74444">
        <ele>323.14</ele>
        <time>2018-10-18T11:55:30Z</time>
      </trkpt>
      <trkpt lat="48.43517" lon="6.74461">
        <ele>323.14</ele>
        <time>2018-10-18T11:55:40Z</time>
      </trkpt>
      <trkpt lat="48.43513" lon="6.74477">
        <ele>324.1</ele>
        <time>2018-10-18T11:55:50Z</time>
      </trkpt>
      <trkpt lat="48.43505" lon="6.74492">
        <ele>324.58</ele>
        <time>2018-10-18T11:55:59Z</time>
      </trkpt>
      <trkpt lat="48.43504" lon="6.74508">
        <ele>325.06</ele>
        <time>2018-10-18T11:56:09Z</time>
      </trkpt>
      <trkpt lat="48.43495" lon="6.74523">
        <ele>325.54</ele>
        <time>2018-10-18T11:56:18Z</time>
      </trkpt>
      <trkpt lat="48.43488" lon="6.74535">
        <ele>325.54</ele>
        <time>2018-10-18T11:56:36Z</time>
      </trkpt>
      <trkpt lat="48.43486" lon="6.74548">
        <ele>326.02</ele>
        <time>2018-10-18T11:56:47Z</time>
      </trkpt>
      <trkpt lat="48.43471" lon="6.74561">
        <ele>325.54</ele>
        <time>2018-10-18T11:56:55Z</time>
      </trkpt>
      <trkpt lat="48.43461" lon="6.74572">
        <ele>325.54</ele>
        <time>2018-10-18T11:57:03Z</time>
      </trkpt>
      <trkpt lat="48.43457" lon="6.74584">
        <ele>325.54</ele>
        <time>2018-10-18T11:57:11Z</time>
      </trkpt>
      <trkpt lat="48.43451" lon="6.74596">
        <ele>325.06</ele>
        <time>2018-10-18T11:57:19Z</time>
      </trkpt>
      <trkpt lat="48.43445" lon="6.74614">
        <ele>325.06</ele>
        <time>2018-10-18T11:57:28Z</time>
      </trkpt>
      <trkpt lat="48.43441" lon="6.7463">
        <ele>324.58</ele>
        <time>2018-10-18T11:57:36Z</time>
      </trkpt>
      <trkpt lat="48.43436" lon="6.74643">
        <ele>324.1</ele>
        <time>2018-10-18T11:57:44Z</time>
      </trkpt>
      <trkpt lat="48.43432" lon="6.74656">
        <ele>323.62</ele>
        <time>2018-10-18T11:57:52Z</time>
      </trkpt>
      <trkpt lat="48.43428" lon="6.74669">
        <ele>323.14</ele>
        <time>2018-10-18T11:58:00Z</time>
      </trkpt>
      <trkpt lat="48.43421" lon="6.74682">
        <ele>322.66</ele>
        <time>2018-10-18T11:58:08Z</time>
      </trkpt>
      <trkpt lat="48.43415" lon="6.74694">
        <ele>321.7</ele>
        <time>2018-10-18T11:58:16Z</time>
      </trkpt>
      <trkpt lat="48.43409" lon="6.74705">
        <ele>321.22</ele>
        <time>2018-10-18T11:58:24Z</time>
      </trkpt>
      <trkpt lat="48.43402" lon="6.74717">
        <ele>321.22</ele>
        <time>2018-10-18T11:58:32Z</time>
      </trkpt>
      <trkpt lat="48.43396" lon="6.74729">
        <ele>320.74</ele>
        <time>2018-10-18T11:58:40Z</time>
      </trkpt>
      <trkpt lat="48.4339" lon="6.74741">
        <ele>320.26</ele>
        <time>2018-10-18T11:58:48Z</time>
      </trkpt>
      <trkpt lat="48.43384" lon="6.74753">
        <ele>320.26</ele>
        <time>2018-10-18T11:58:56Z</time>
      </trkpt>
      <trkpt lat="48.43378" lon="6.74765">
        <ele>319.78</ele>
        <time>2018-10-18T11:59:04Z</time>
      </trkpt>
      <trkpt lat="48.4337" lon="6.74775">
        <ele>319.3</ele>
        <time>2018-10-18T11:59:12Z</time>
      </trkpt>
      <trkpt lat="48.43364" lon="6.74785">
        <ele>318.81</ele>
        <time>2018-10-18T11:59:20Z</time>
      </trkpt>
      <trkpt lat="48.43356" lon="6.74796">
        <ele>318.81</ele>
        <time>2018-10-18T11:59:28Z</time>
      </trkpt>
      <trkpt lat="48.43349" lon="6.74805">
        <ele>318.33</ele>
        <time>2018-10-18T11:59:36Z</time>
      </trkpt>
      <trkpt lat="48.43341" lon="6.74812">
        <ele>318.33</ele>
        <time>2018-10-18T11:59:44Z</time>
      </trkpt>
      <trkpt lat="48.43333" lon="6.74819">
        <ele>317.85</ele>
        <time>2018-10-18T11:59:52Z</time>
      </trkpt>
      <trkpt lat="48.43324" lon="6.74827">
        <ele>317.37</ele>
        <time>2018-10-18T12:00:00Z</time>
      </trkpt>
      <trkpt lat="48.43316" lon="6.74833">
        <ele>317.85</ele>
        <time>2018-10-18T12:00:08Z</time>
      </trkpt>
      <trkpt lat="48.43308" lon="6.7484">
        <ele>316.89</ele>
        <time>2018-10-18T12:00:16Z</time>
      </trkpt>
      <trkpt lat="48.43299" lon="6.74846">
        <ele>315.93</ele>
        <time>2018-10-18T12:00:24Z</time>
      </trkpt>
      <trkpt lat="48.43292" lon="6.74854">
        <ele>315.45</ele>
        <time>2018-10-18T12:00:32Z</time>
      </trkpt>
      <trkpt lat="48.43285" lon="6.74863">
        <ele>314.97</ele>
        <time>2018-10-18T12:00:40Z</time>
      </trkpt>
      <trkpt lat="48.43278" lon="6.74873">
        <ele>314.97</ele>
        <time>2018-10-18T12:00:48Z</time>
      </trkpt>
      <trkpt lat="48.43272" lon="6.74885">
        <ele>314.49</ele>
        <time>2018-10-18T12:00:56Z</time>
      </trkpt>
      <trkpt lat="48.43266" lon="6.74897">
        <ele>314.01</ele>
        <time>2018-10-18T12:01:05Z</time>
      </trkpt>
      <trkpt lat="48.43259" lon="6.74905">
        <ele>313.53</ele>
        <time>2018-10-18T12:01:15Z</time>
      </trkpt>
      <trkpt lat="48.43255" lon="6.74909">
        <ele>313.05</ele>
        <time>2018-10-18T12:02:05Z</time>
      </trkpt>
      <trkpt lat="48.4325" lon="6.74912">
        <ele>312.57</ele>
        <time>2018-10-18T12:04:41Z</time>
      </trkpt>
      <trkpt lat="48.43243" lon="6.74921">
        <ele>311.6</ele>
        <time>2018-10-18T12:04:50Z</time>
      </trkpt>
      <trkpt lat="48.43236" lon="6.74927">
        <ele>310.64</ele>
        <time>2018-10-18T12:04:59Z</time>
      </trkpt>
      <trkpt lat="48.43227" lon="6.74934">
        <ele>309.68</ele>
        <time>2018-10-18T12:05:09Z</time>
      </trkpt>
      <trkpt lat="48.43219" lon="6.74939">
        <ele>308.72</ele>
        <time>2018-10-18T12:05:18Z</time>
      </trkpt>
      <trkpt lat="48.43211" lon="6.74947">
        <ele>308.24</ele>
        <time>2018-10-18T12:05:27Z</time>
      </trkpt>
      <trkpt lat="48.43207" lon="6.74959">
        <ele>306.8</ele>
        <time>2018-10-18T12:05:37Z</time>
      </trkpt>
      <trkpt lat="48.43205" lon="6.74973">
        <ele>305.36</ele>
        <time>2018-10-18T12:05:48Z</time>
      </trkpt>
      <trkpt lat="48.43207" lon="6.74986">
        <ele>303.91</ele>
        <time>2018-10-18T12:05:58Z</time>
      </trkpt>
      <trkpt lat="48.43212" lon="6.74999">
        <ele>302.47</ele>
        <time>2018-10-18T12:06:10Z</time>
      </trkpt>
      <trkpt lat="48.43217" lon="6.75014">
        <ele>301.03</ele>
        <time>2018-10-18T12:06:22Z</time>
      </trkpt>
      <trkpt lat="48.43218" lon="6.75027">
        <ele>299.59</ele>
        <time>2018-10-18T12:06:32Z</time>
      </trkpt>
      <trkpt lat="48.43213" lon="6.75037">
        <ele>298.63</ele>
        <time>2018-10-18T12:06:42Z</time>
      </trkpt>
      <trkpt lat="48.43206" lon="6.75044">
        <ele>297.67</ele>
        <time>2018-10-18T12:06:51Z</time>
      </trkpt>
      <trkpt lat="48.432" lon="6.75051">
        <ele>296.7</ele>
        <time>2018-10-18T12:07:01Z</time>
      </trkpt>
      <trkpt lat="48.43192" lon="6.7505">
        <ele>295.74</ele>
        <time>2018-10-18T12:07:10Z</time>
      </trkpt>
      <trkpt lat="48.43181" lon="6.75045">
        <ele>294.78</ele>
        <time>2018-10-18T12:07:24Z</time>
      </trkpt>
      <trkpt lat="48.43172" lon="6.75041">
        <ele>293.82</ele>
        <time>2018-10-18T12:07:33Z</time>
      </trkpt>
      <trkpt lat="48.43164" lon="6.75034">
        <ele>292.86</ele>
        <time>2018-10-18T12:07:45Z</time>
      </trkpt>
      <trkpt lat="48.43156" lon="6.75023">
        <ele>291.9</ele>
        <time>2018-10-18T12:07:57Z</time>
      </trkpt>
      <trkpt lat="48.43146" lon="6.75013">
        <ele>290.46</ele>
        <time>2018-10-18T12:08:09Z</time>
      </trkpt>
      <trkpt lat="48.43136" lon="6.75008">
        <ele>289.49</ele>
        <time>2018-10-18T12:08:19Z</time>
      </trkpt>
      <trkpt lat="48.4313" lon="6.75004">
        <ele>289.01</ele>
        <time>2018-10-18T12:08:30Z</time>
      </trkpt>
      <trkpt lat="48.43121" lon="6.74996">
        <ele>288.53</ele>
        <time>2018-10-18T12:08:40Z</time>
      </trkpt>
      <trkpt lat="48.43113" lon="6.74985">
        <ele>288.53</ele>
        <time>2018-10-18T12:08:50Z</time>
      </trkpt>
      <trkpt lat="48.43108" lon="6.74973">
        <ele>289.01</ele>
        <time>2018-10-18T12:08:59Z</time>
      </trkpt>
      <trkpt lat="48.43101" lon="6.74961">
        <ele>289.01</ele>
        <time>2018-10-18T12:09:07Z</time>
      </trkpt>
      <trkpt lat="48.43093" lon="6.74948">
        <ele>289.01</ele>
        <time>2018-10-18T12:09:16Z</time>
      </trkpt>
      <trkpt lat="48.43086" lon="6.74937">
        <ele>289.49</ele>
        <time>2018-10-18T12:09:25Z</time>
      </trkpt>
      <trkpt lat="48.43077" lon="6.74926">
        <ele>289.97</ele>
        <time>2018-10-18T12:09:33Z</time>
      </trkpt>
      <trkpt lat="48.43068" lon="6.74918">
        <ele>289.97</ele>
        <time>2018-10-18T12:09:42Z</time>
      </trkpt>
      <trkpt lat="48.43059" lon="6.74912">
        <ele>290.46</ele>
        <time>2018-10-18T12:09:52Z</time>
      </trkpt>
      <trkpt lat="48.43049" lon="6.74908">
        <ele>290.94</ele>
        <time>2018-10-18T12:10:02Z</time>
      </trkpt>
      <trkpt lat="48.4304" lon="6.749">
        <ele>291.42</ele>
        <time>2018-10-18T12:10:11Z</time>
      </trkpt>
      <trkpt lat="48.43032" lon="6.74889">
        <ele>291.42</ele>
        <time>2018-10-18T12:10:20Z</time>
      </trkpt>
      <trkpt lat="48.43022" lon="6.74875">
        <ele>291.42</ele>
        <time>2018-10-18T12:10:30Z</time>
      </trkpt>
      <trkpt lat="48.43012" lon="6.74866">
        <ele>291.9</ele>
        <time>2018-10-18T12:10:40Z</time>
      </trkpt>
      <trkpt lat="48.43003" lon="6.74849">
        <ele>291.9</ele>
        <time>2018-10-18T12:10:49Z</time>
      </trkpt>
      <trkpt lat="48.42995" lon="6.74836">
        <ele>292.38</ele>
        <time>2018-10-18T12:11:00Z</time>
      </trkpt>
      <trkpt lat="48.42985" lon="6.74823">
        <ele>292.86</ele>
        <time>2018-10-18T12:11:10Z</time>
      </trkpt>
      <trkpt lat="48.42974" lon="6.74816">
        <ele>292.86</ele>
        <time>2018-10-18T12:11:19Z</time>
      </trkpt>
      <trkpt lat="48.42964" lon="6.748">
        <ele>293.82</ele>
        <time>2018-10-18T12:11:30Z</time>
      </trkpt>
      <trkpt lat="48.42951" lon="6.74793">
        <ele>294.3</ele>
        <time>2018-10-18T12:11:40Z</time>
      </trkpt>
      <trkpt lat="48.42941" lon="6.74786">
        <ele>294.78</ele>
        <time>2018-10-18T12:11:48Z</time>
      </trkpt>
      <trkpt lat="48.42931" lon="6.7478">
        <ele>294.78</ele>
        <time>2018-10-18T12:11:56Z</time>
      </trkpt>
      <trkpt lat="48.42922" lon="6.74773">
        <ele>294.78</ele>
        <time>2018-10-18T12:12:04Z</time>
      </trkpt>
      <trkpt lat="48.42913" lon="6.74772">
        <ele>294.3</ele>
        <time>2018-10-18T12:12:12Z</time>
      </trkpt>
      <trkpt lat="48.42905" lon="6.74769">
        <ele>294.3</ele>
        <time>2018-10-18T12:12:20Z</time>
      </trkpt>
      <trkpt lat="48.42895" lon="6.74766">
        <ele>294.3</ele>
        <time>2018-10-18T12:12:29Z</time>
      </trkpt>
      <trkpt lat="48.42885" lon="6.74761">
        <ele>294.3</ele>
        <time>2018-10-18T12:12:38Z</time>
      </trkpt>
      <trkpt lat="48.42874" lon="6.74755">
        <ele>293.82</ele>
        <time>2018-10-18T12:12:48Z</time>
      </trkpt>
      <trkpt lat="48.42863" lon="6.74749">
        <ele>293.82</ele>
        <time>2018-10-18T12:13:06Z</time>
      </trkpt>
      <trkpt lat="48.42854" lon="6.74744">
        <ele>294.3</ele>
        <time>2018-10-18T12:13:16Z</time>
      </trkpt>
      <trkpt lat="48.42843" lon="6.74738">
        <ele>294.3</ele>
        <time>2018-10-18T12:13:26Z</time>
      </trkpt>
      <trkpt lat="48.42833" lon="6.74734">
        <ele>294.78</ele>
        <time>2018-10-18T12:13:35Z</time>
      </trkpt>
      <trkpt lat="48.42823" lon="6.74727">
        <ele>295.26</ele>
        <time>2018-10-18T12:13:44Z</time>
      </trkpt>
      <trkpt lat="48.42814" lon="6.7472">
        <ele>295.74</ele>
        <time>2018-10-18T12:13:53Z</time>
      </trkpt>
      <trkpt lat="48.42806" lon="6.74712">
        <ele>296.22</ele>
        <time>2018-10-18T12:14:04Z</time>
      </trkpt>
      <trkpt lat="48.42796" lon="6.74702">
        <ele>295.74</ele>
        <time>2018-10-18T12:14:16Z</time>
      </trkpt>
      <trkpt lat="48.42778" lon="6.74695">
        <ele>296.22</ele>
        <time>2018-10-18T12:14:34Z</time>
      </trkpt>
      <trkpt lat="48.42769" lon="6.74689">
        <ele>295.74</ele>
        <time>2018-10-18T12:14:44Z</time>
      </trkpt>
      <trkpt lat="48.4276" lon="6.74684">
        <ele>295.74</ele>
        <time>2018-10-18T12:14:53Z</time>
      </trkpt>
      <trkpt lat="48.42749" lon="6.7468">
        <ele>296.22</ele>
        <time>2018-10-18T12:15:02Z</time>
      </trkpt>
      <trkpt lat="48.42739" lon="6.74674">
        <ele>296.22</ele>
        <time>2018-10-18T12:15:12Z</time>
      </trkpt>
      <trkpt lat="48.42729" lon="6.74665">
        <ele>296.7</ele>
        <time>2018-10-18T12:15:21Z</time>
      </trkpt>
      <trkpt lat="48.42717" lon="6.74657">
        <ele>296.7</ele>
        <time>2018-10-18T12:15:30Z</time>
      </trkpt>
      <trkpt lat="48.42708" lon="6.7465">
        <ele>296.7</ele>
        <time>2018-10-18T12:15:38Z</time>
      </trkpt>
      <trkpt lat="48.42699" lon="6.74642">
        <ele>297.18</ele>
        <time>2018-10-18T12:15:47Z</time>
      </trkpt>
      <trkpt lat="48.42691" lon="6.74632">
        <ele>297.67</ele>
        <time>2018-10-18T12:15:55Z</time>
      </trkpt>
      <trkpt lat="48.4269" lon="6.7463">
        <ele>297.67</ele>
        <time>2018-10-18T12:16:03Z</time>
      </trkpt>
      <trkpt lat="48.42687" lon="6.74623">
        <ele>297.67</ele>
        <time>2018-10-18T12:16:11Z</time>
      </trkpt>
      <trkpt lat="48.42678" lon="6.74611">
        <ele>297.67</ele>
        <time>2018-10-18T12:16:21Z</time>
      </trkpt>
      <trkpt lat="48.42669" lon="6.74598">
        <ele>297.67</ele>
        <time>2018-10-18T12:16:33Z</time>
      </trkpt>
      <trkpt lat="48.42663" lon="6.74573">
        <ele>298.63</ele>
        <time>2018-10-18T12:16:44Z</time>
      </trkpt>
      <trkpt lat="48.42659" lon="6.74562">
        <ele>298.63</ele>
        <time>2018-10-18T12:17:02Z</time>
      </trkpt>
      <trkpt lat="48.42656" lon="6.74551">
        <ele>299.11</ele>
        <time>2018-10-18T12:17:11Z</time>
      </trkpt>
      <trkpt lat="48.42655" lon="6.74538">
        <ele>299.59</ele>
        <time>2018-10-18T12:17:20Z</time>
      </trkpt>
      <trkpt lat="48.42651" lon="6.74525">
        <ele>300.07</ele>
        <time>2018-10-18T12:17:30Z</time>
      </trkpt>
      <trkpt lat="48.42647" lon="6.74513">
        <ele>300.07</ele>
        <time>2018-10-18T12:17:39Z</time>
      </trkpt>
      <trkpt lat="48.42643" lon="6.745">
        <ele>300.55</ele>
        <time>2018-10-18T12:17:46Z</time>
      </trkpt>
      <trkpt lat="48.42639" lon="6.74486">
        <ele>300.55</ele>
        <time>2018-10-18T12:17:54Z</time>
      </trkpt>
      <trkpt lat="48.42632" lon="6.74474">
        <ele>300.55</ele>
        <time>2018-10-18T12:18:02Z</time>
      </trkpt>
      <trkpt lat="48.42628" lon="6.74461">
        <ele>301.03</ele>
        <time>2018-10-18T12:18:10Z</time>
      </trkpt>
      <trkpt lat="48.42623" lon="6.74446">
        <ele>301.03</ele>
        <time>2018-10-18T12:18:19Z</time>
      </trkpt>
      <trkpt lat="48.42619" lon="6.74432">
        <ele>301.51</ele>
        <time>2018-10-18T12:18:27Z</time>
      </trkpt>
      <trkpt lat="48.42614" lon="6.74414">
        <ele>301.99</ele>
        <time>2018-10-18T12:18:36Z</time>
      </trkpt>
      <trkpt lat="48.42609" lon="6.74399">
        <ele>301.99</ele>
        <time>2018-10-18T12:18:44Z</time>
      </trkpt>
      <trkpt lat="48.42604" lon="6.74384">
        <ele>302.47</ele>
        <time>2018-10-18T12:18:53Z</time>
      </trkpt>
      <trkpt lat="48.42597" lon="6.74371">
        <ele>302.47</ele>
        <time>2018-10-18T12:19:01Z</time>
      </trkpt>
      <trkpt lat="48.42589" lon="6.7436">
        <ele>302.95</ele>
        <time>2018-10-18T12:19:09Z</time>
      </trkpt>
      <trkpt lat="48.42581" lon="6.7435">
        <ele>302.95</ele>
        <time>2018-10-18T12:19:17Z</time>
      </trkpt>
      <trkpt lat="48.42572" lon="6.7434">
        <ele>302.95</ele>
        <time>2018-10-18T12:19:25Z</time>
      </trkpt>
      <trkpt lat="48.42562" lon="6.7433">
        <ele>302.95</ele>
        <time>2018-10-18T12:19:33Z</time>
      </trkpt>
      <trkpt lat="48.42553" lon="6.7432">
        <ele>302.95</ele>
        <time>2018-10-18T12:19:41Z</time>
      </trkpt>
      <trkpt lat="48.42546" lon="6.74312">
        <ele>303.43</ele>
        <time>2018-10-18T12:19:49Z</time>
      </trkpt>
      <trkpt lat="48.42539" lon="6.74304">
        <ele>302.95</ele>
        <time>2018-10-18T12:19:57Z</time>
      </trkpt>
      <trkpt lat="48.4253" lon="6.74297">
        <ele>303.43</ele>
        <time>2018-10-18T12:20:06Z</time>
      </trkpt>
      <trkpt lat="48.42522" lon="6.74289">
        <ele>302.95</ele>
        <time>2018-10-18T12:20:20Z</time>
      </trkpt>
      <trkpt lat="48.42517" lon="6.74279">
        <ele>303.43</ele>
        <time>2018-10-18T12:20:52Z</time>
      </trkpt>
      <trkpt lat="48.42514" lon="6.74267">
        <ele>302.95</ele>
        <time>2018-10-18T12:22:57Z</time>
      </trkpt>
      <trkpt lat="48.42514" lon="6.74267">
        <ele>302.95</ele>
        <time>2018-10-18T12:24:55Z</time>
      </trkpt>
      <trkpt lat="48.42507" lon="6.74271">
        <ele>303.91</ele>
        <time>2018-10-18T12:25:57Z</time>
      </trkpt>
      <trkpt lat="48.42502" lon="6.74262">
        <ele>303.91</ele>
        <time>2018-10-18T12:26:05Z</time>
      </trkpt>
      <trkpt lat="48.42496" lon="6.74252">
        <ele>303.91</ele>
        <time>2018-10-18T12:26:14Z</time>
      </trkpt>
      <trkpt lat="48.42487" lon="6.74242">
        <ele>303.43</ele>
        <time>2018-10-18T12:26:22Z</time>
      </trkpt>
      <trkpt lat="48.42479" lon="6.74233">
        <ele>303.91</ele>
        <time>2018-10-18T12:26:30Z</time>
      </trkpt>
      <trkpt lat="48.4247" lon="6.74225">
        <ele>303.43</ele>
        <time>2018-10-18T12:26:39Z</time>
      </trkpt>
      <trkpt lat="48.42458" lon="6.74223">
        <ele>302.47</ele>
        <time>2018-10-18T12:26:59Z</time>
      </trkpt>
      <trkpt lat="48.42445" lon="6.7422">
        <ele>302.95</ele>
        <time>2018-10-18T12:27:16Z</time>
      </trkpt>
      <trkpt lat="48.42425" lon="6.74217">
        <ele>303.91</ele>
        <time>2018-10-18T12:27:27Z</time>
      </trkpt>
      <trkpt lat="48.42411" lon="6.7421">
        <ele>305.84</ele>
        <time>2018-10-18T12:27:37Z</time>
      </trkpt>
      <trkpt lat="48.42405" lon="6.74202">
        <ele>306.8</ele>
        <time>2018-10-18T12:27:46Z</time>
      </trkpt>
      <trkpt lat="48.42403" lon="6.7419">
        <ele>306.8</ele>
        <time>2018-10-18T12:27:55Z</time>
      </trkpt>
      <trkpt lat="48.424" lon="6.74177">
        <ele>306.32</ele>
        <time>2018-10-18T12:28:03Z</time>
      </trkpt>
      <trkpt lat="48.42397" lon="6.74164">
        <ele>306.8</ele>
        <time>2018-10-18T12:28:12Z</time>
      </trkpt>
      <trkpt lat="48.42393" lon="6.74147">
        <ele>307.28</ele>
        <time>2018-10-18T12:28:21Z</time>
      </trkpt>
      <trkpt lat="48.42389" lon="6.74132">
        <ele>307.28</ele>
        <time>2018-10-18T12:28:29Z</time>
      </trkpt>
      <trkpt lat="48.42384" lon="6.7412">
        <ele>308.24</ele>
        <time>2018-10-18T12:28:37Z</time>
      </trkpt>
      <trkpt lat="48.42381" lon="6.74106">
        <ele>308.72</ele>
        <time>2018-10-18T12:28:46Z</time>
      </trkpt>
      <trkpt lat="48.42376" lon="6.74092">
        <ele>308.72</ele>
        <time>2018-10-18T12:28:54Z</time>
      </trkpt>
      <trkpt lat="48.42372" lon="6.74079">
        <ele>309.2</ele>
        <time>2018-10-18T12:29:02Z</time>
      </trkpt>
      <trkpt lat="48.42368" lon="6.74067">
        <ele>310.16</ele>
        <time>2018-10-18T12:29:10Z</time>
      </trkpt>
      <trkpt lat="48.42364" lon="6.74054">
        <ele>310.16</ele>
        <time>2018-10-18T12:29:18Z</time>
      </trkpt>
      <trkpt lat="48.4236" lon="6.7404">
        <ele>310.16</ele>
        <time>2018-10-18T12:29:26Z</time>
      </trkpt>
      <trkpt lat="48.42355" lon="6.74028">
        <ele>310.64</ele>
        <time>2018-10-18T12:29:34Z</time>
      </trkpt>
      <trkpt lat="48.42351" lon="6.74015">
        <ele>310.64</ele>
        <time>2018-10-18T12:29:42Z</time>
      </trkpt>
      <trkpt lat="48.42347" lon="6.74002">
        <ele>310.64</ele>
        <time>2018-10-18T12:29:50Z</time>
      </trkpt>
      <trkpt lat="48.42344" lon="6.73989">
        <ele>311.12</ele>
        <time>2018-10-18T12:29:58Z</time>
      </trkpt>
      <trkpt lat="48.4234" lon="6.73975">
        <ele>311.6</ele>
        <time>2018-10-18T12:30:06Z</time>
      </trkpt>
      <trkpt lat="48.42339" lon="6.7396">
        <ele>311.6</ele>
        <time>2018-10-18T12:30:15Z</time>
      </trkpt>
      <trkpt lat="48.42339" lon="6.73946">
        <ele>311.6</ele>
        <time>2018-10-18T12:30:23Z</time>
      </trkpt>
      <trkpt lat="48.42342" lon="6.73932">
        <ele>311.12</ele>
        <time>2018-10-18T12:30:31Z</time>
      </trkpt>
      <trkpt lat="48.42344" lon="6.73917">
        <ele>310.64</ele>
        <time>2018-10-18T12:30:39Z</time>
      </trkpt>
      <trkpt lat="48.42347" lon="6.73902">
        <ele>311.12</ele>
        <time>2018-10-18T12:30:48Z</time>
      </trkpt>
      <trkpt lat="48.42351" lon="6.7389">
        <ele>311.12</ele>
        <time>2018-10-18T12:30:56Z</time>
      </trkpt>
      <trkpt lat="48.42355" lon="6.73874">
        <ele>310.64</ele>
        <time>2018-10-18T12:31:05Z</time>
      </trkpt>
      <trkpt lat="48.42359" lon="6.73859">
        <ele>310.64</ele>
        <time>2018-10-18T12:31:14Z</time>
      </trkpt>
      <trkpt lat="48.42363" lon="6.73846">
        <ele>311.12</ele>
        <time>2018-10-18T12:31:22Z</time>
      </trkpt>
      <trkpt lat="48.42367" lon="6.73831">
        <ele>311.12</ele>
        <time>2018-10-18T12:31:32Z</time>
      </trkpt>
      <trkpt lat="48.42369" lon="6.73816">
        <ele>311.12</ele>
        <time>2018-10-18T12:31:51Z</time>
      </trkpt>
      <trkpt lat="48.42372" lon="6.73806">
        <ele>311.12</ele>
        <time>2018-10-18T12:31:59Z</time>
      </trkpt>
      <trkpt lat="48.42374" lon="6.73792">
        <ele>311.12</ele>
        <time>2018-10-18T12:32:08Z</time>
      </trkpt>
      <trkpt lat="48.42376" lon="6.73779">
        <ele>311.12</ele>
        <time>2018-10-18T12:32:16Z</time>
      </trkpt>
      <trkpt lat="48.42377" lon="6.73765">
        <ele>311.12</ele>
        <time>2018-10-18T12:32:24Z</time>
      </trkpt>
      <trkpt lat="48.42378" lon="6.73751">
        <ele>310.64</ele>
        <time>2018-10-18T12:32:32Z</time>
      </trkpt>
      <trkpt lat="48.42379" lon="6.73737">
        <ele>310.64</ele>
        <time>2018-10-18T12:32:40Z</time>
      </trkpt>
      <trkpt lat="48.42381" lon="6.73721">
        <ele>310.16</ele>
        <time>2018-10-18T12:32:48Z</time>
      </trkpt>
      <trkpt lat="48.4238" lon="6.73705">
        <ele>309.68</ele>
        <time>2018-10-18T12:32:56Z</time>
      </trkpt>
      <trkpt lat="48.42381" lon="6.73691">
        <ele>310.16</ele>
        <time>2018-10-18T12:33:04Z</time>
      </trkpt>
      <trkpt lat="48.42383" lon="6.73679">
        <ele>310.16</ele>
        <time>2018-10-18T12:33:12Z</time>
      </trkpt>
      <trkpt lat="48.42382" lon="6.73666">
        <ele>310.64</ele>
        <time>2018-10-18T12:33:19Z</time>
      </trkpt>
      <trkpt lat="48.42382" lon="6.73652">
        <ele>310.64</ele>
        <time>2018-10-18T12:33:27Z</time>
      </trkpt>
      <trkpt lat="48.42381" lon="6.73636">
        <ele>311.12</ele>
        <time>2018-10-18T12:33:35Z</time>
      </trkpt>
      <trkpt lat="48.4238" lon="6.73621">
        <ele>311.12</ele>
        <time>2018-10-18T12:33:43Z</time>
      </trkpt>
      <trkpt lat="48.42377" lon="6.73607">
        <ele>311.12</ele>
        <time>2018-10-18T12:33:51Z</time>
      </trkpt>
      <trkpt lat="48.42373" lon="6.73592">
        <ele>311.6</ele>
        <time>2018-10-18T12:33:59Z</time>
      </trkpt>
      <trkpt lat="48.42371" lon="6.73578">
        <ele>311.6</ele>
        <time>2018-10-18T12:34:07Z</time>
      </trkpt>
      <trkpt lat="48.42368" lon="6.73566">
        <ele>311.6</ele>
        <time>2018-10-18T12:34:15Z</time>
      </trkpt>
      <trkpt lat="48.42365" lon="6.73548">
        <ele>311.6</ele>
        <time>2018-10-18T12:34:23Z</time>
      </trkpt>
      <trkpt lat="48.42362" lon="6.7353">
        <ele>312.09</ele>
        <time>2018-10-18T12:34:31Z</time>
      </trkpt>
      <trkpt lat="48.4236" lon="6.73513">
        <ele>312.09</ele>
        <time>2018-10-18T12:34:39Z</time>
      </trkpt>
      <trkpt lat="48.42357" lon="6.73501">
        <ele>312.09</ele>
        <time>2018-10-18T12:34:50Z</time>
      </trkpt>
      <trkpt lat="48.42353" lon="6.73486">
        <ele>312.57</ele>
        <time>2018-10-18T12:34:58Z</time>
      </trkpt>
      <trkpt lat="48.42349" lon="6.73473">
        <ele>312.09</ele>
        <time>2018-10-18T12:35:06Z</time>
      </trkpt>
      <trkpt lat="48.42345" lon="6.7346">
        <ele>311.6</ele>
        <time>2018-10-18T12:35:14Z</time>
      </trkpt>
      <trkpt lat="48.4234" lon="6.73447">
        <ele>311.12</ele>
        <time>2018-10-18T12:35:22Z</time>
      </trkpt>
      <trkpt lat="48.42336" lon="6.73435">
        <ele>311.6</ele>
        <time>2018-10-18T12:35:30Z</time>
      </trkpt>
      <trkpt lat="48.42331" lon="6.73424">
        <ele>311.6</ele>
        <time>2018-10-18T12:35:39Z</time>
      </trkpt>
      <trkpt lat="48.42328" lon="6.73409">
        <ele>311.6</ele>
        <time>2018-10-18T12:35:56Z</time>
      </trkpt>
      <trkpt lat="48.42321" lon="6.73398">
        <ele>311.6</ele>
        <time>2018-10-18T12:36:12Z</time>
      </trkpt>
      <trkpt lat="48.42318" lon="6.73388">
        <ele>311.6</ele>
        <time>2018-10-18T12:36:26Z</time>
      </trkpt>
      <trkpt lat="48.42314" lon="6.73376">
        <ele>312.09</ele>
        <time>2018-10-18T12:36:39Z</time>
      </trkpt>
      <trkpt lat="48.42301" lon="6.73366">
        <ele>313.05</ele>
        <time>2018-10-18T12:37:12Z</time>
      </trkpt>
      <trkpt lat="48.42298" lon="6.73352">
        <ele>313.53</ele>
        <time>2018-10-18T12:37:22Z</time>
      </trkpt>
      <trkpt lat="48.42293" lon="6.73337">
        <ele>313.53</ele>
        <time>2018-10-18T12:37:31Z</time>
      </trkpt>
      <trkpt lat="48.42288" lon="6.73324">
        <ele>313.53</ele>
        <time>2018-10-18T12:37:40Z</time>
      </trkpt>
      <trkpt lat="48.42282" lon="6.73312">
        <ele>314.01</ele>
        <time>2018-10-18T12:37:49Z</time>
      </trkpt>
      <trkpt lat="48.42277" lon="6.733">
        <ele>314.49</ele>
        <time>2018-10-18T12:37:57Z</time>
      </trkpt>
      <trkpt lat="48.42273" lon="6.73286">
        <ele>314.97</ele>
        <time>2018-10-18T12:38:06Z</time>
      </trkpt>
      <trkpt lat="48.4227" lon="6.73274">
        <ele>314.49</ele>
        <time>2018-10-18T12:38:15Z</time>
      </trkpt>
      <trkpt lat="48.42266" lon="6.73261">
        <ele>314.01</ele>
        <time>2018-10-18T12:38:24Z</time>
      </trkpt>
      <trkpt lat="48.42263" lon="6.73247">
        <ele>313.53</ele>
        <time>2018-10-18T12:38:32Z</time>
      </trkpt>
      <trkpt lat="48.42258" lon="6.73236">
        <ele>313.05</ele>
        <time>2018-10-18T12:38:40Z</time>
      </trkpt>
      <trkpt lat="48.42255" lon="6.73222">
        <ele>313.05</ele>
        <time>2018-10-18T12:38:49Z</time>
      </trkpt>
      <trkpt lat="48.42252" lon="6.73209">
        <ele>313.05</ele>
        <time>2018-10-18T12:38:58Z</time>
      </trkpt>
      <trkpt lat="48.42248" lon="6.73192">
        <ele>312.57</ele>
        <time>2018-10-18T12:39:07Z</time>
      </trkpt>
      <trkpt lat="48.42245" lon="6.73178">
        <ele>312.09</ele>
        <time>2018-10-18T12:39:16Z</time>
      </trkpt>
      <trkpt lat="48.42243" lon="6.73163">
        <ele>312.09</ele>
        <time>2018-10-18T12:39:24Z</time>
      </trkpt>
      <trkpt lat="48.4224" lon="6.73149">
        <ele>311.6</ele>
        <time>2018-10-18T12:39:32Z</time>
      </trkpt>
      <trkpt lat="48.42239" lon="6.73132">
        <ele>311.6</ele>
        <time>2018-10-18T12:39:41Z</time>
      </trkpt>
      <trkpt lat="48.42237" lon="6.73116">
        <ele>312.09</ele>
        <time>2018-10-18T12:39:49Z</time>
      </trkpt>
      <trkpt lat="48.42235" lon="6.73101">
        <ele>312.09</ele>
        <time>2018-10-18T12:39:57Z</time>
      </trkpt>
      <trkpt lat="48.42233" lon="6.73085">
        <ele>312.09</ele>
        <time>2018-10-18T12:40:06Z</time>
      </trkpt>
      <trkpt lat="48.42233" lon="6.73071">
        <ele>312.57</ele>
        <time>2018-10-18T12:40:15Z</time>
      </trkpt>
      <trkpt lat="48.42231" lon="6.73056">
        <ele>312.57</ele>
        <time>2018-10-18T12:40:23Z</time>
      </trkpt>
      <trkpt lat="48.4223" lon="6.73042">
        <ele>312.57</ele>
        <time>2018-10-18T12:40:31Z</time>
      </trkpt>
      <trkpt lat="48.42231" lon="6.73025">
        <ele>313.05</ele>
        <time>2018-10-18T12:40:39Z</time>
      </trkpt>
      <trkpt lat="48.42231" lon="6.73007">
        <ele>313.53</ele>
        <time>2018-10-18T12:40:48Z</time>
      </trkpt>
      <trkpt lat="48.42229" lon="6.72993">
        <ele>314.49</ele>
        <time>2018-10-18T12:40:57Z</time>
      </trkpt>
      <trkpt lat="48.42225" lon="6.72977">
        <ele>314.97</ele>
        <time>2018-10-18T12:41:06Z</time>
      </trkpt>
      <trkpt lat="48.42222" lon="6.72962">
        <ele>315.45</ele>
        <time>2018-10-18T12:41:15Z</time>
      </trkpt>
      <trkpt lat="48.42218" lon="6.72947">
        <ele>315.45</ele>
        <time>2018-10-18T12:41:23Z</time>
      </trkpt>
      <trkpt lat="48.42216" lon="6.72931">
        <ele>315.45</ele>
        <time>2018-10-18T12:41:31Z</time>
      </trkpt>
      <trkpt lat="48.42211" lon="6.72915">
        <ele>315.93</ele>
        <time>2018-10-18T12:41:39Z</time>
      </trkpt>
      <trkpt lat="48.42207" lon="6.72902">
        <ele>315.93</ele>
        <time>2018-10-18T12:41:47Z</time>
      </trkpt>
      <trkpt lat="48.42203" lon="6.72887">
        <ele>315.93</ele>
        <time>2018-10-18T12:41:55Z</time>
      </trkpt>
      <trkpt lat="48.42199" lon="6.72871">
        <ele>315.93</ele>
        <time>2018-10-18T12:42:04Z</time>
      </trkpt>
      <trkpt lat="48.42195" lon="6.72856">
        <ele>315.93</ele>
        <time>2018-10-18T12:42:12Z</time>
      </trkpt>
      <trkpt lat="48.42191" lon="6.72843">
        <ele>315.93</ele>
        <time>2018-10-18T12:42:21Z</time>
      </trkpt>
      <trkpt lat="48.42187" lon="6.7283">
        <ele>315.45</ele>
        <time>2018-10-18T12:42:30Z</time>
      </trkpt>
      <trkpt lat="48.42182" lon="6.72817">
        <ele>314.97</ele>
        <time>2018-10-18T12:42:38Z</time>
      </trkpt>
      <trkpt lat="48.42178" lon="6.72807">
        <ele>314.97</ele>
        <time>2018-10-18T12:42:46Z</time>
      </trkpt>
      <trkpt lat="48.42173" lon="6.72796">
        <ele>315.93</ele>
        <time>2018-10-18T12:42:54Z</time>
      </trkpt>
      <trkpt lat="48.42167" lon="6.72781">
        <ele>316.89</ele>
        <time>2018-10-18T12:43:03Z</time>
      </trkpt>
      <trkpt lat="48.4216" lon="6.72769">
        <ele>317.85</ele>
        <time>2018-10-18T12:43:12Z</time>
      </trkpt>
      <trkpt lat="48.42154" lon="6.7275">
        <ele>318.81</ele>
        <time>2018-10-18T12:43:21Z</time>
      </trkpt>
      <trkpt lat="48.42147" lon="6.72738">
        <ele>319.3</ele>
        <time>2018-10-18T12:43:30Z</time>
      </trkpt>
      <trkpt lat="48.42141" lon="6.72727">
        <ele>320.26</ele>
        <time>2018-10-18T12:43:38Z</time>
      </trkpt>
      <trkpt lat="48.42135" lon="6.72716">
        <ele>320.26</ele>
        <time>2018-10-18T12:43:46Z</time>
      </trkpt>
      <trkpt lat="48.4213" lon="6.72704">
        <ele>320.74</ele>
        <time>2018-10-18T12:43:54Z</time>
      </trkpt>
      <trkpt lat="48.42127" lon="6.7269">
        <ele>320.74</ele>
        <time>2018-10-18T12:44:02Z</time>
      </trkpt>
      <trkpt lat="48.42123" lon="6.72677">
        <ele>320.74</ele>
        <time>2018-10-18T12:44:10Z</time>
      </trkpt>
      <trkpt lat="48.42119" lon="6.72662">
        <ele>320.74</ele>
        <time>2018-10-18T12:44:18Z</time>
      </trkpt>
      <trkpt lat="48.42117" lon="6.72648">
        <ele>320.74</ele>
        <time>2018-10-18T12:44:26Z</time>
      </trkpt>
      <trkpt lat="48.42116" lon="6.72634">
        <ele>320.26</ele>
        <time>2018-10-18T12:44:34Z</time>
      </trkpt>
      <trkpt lat="48.42113" lon="6.72619">
        <ele>320.26</ele>
        <time>2018-10-18T12:44:42Z</time>
      </trkpt>
      <trkpt lat="48.4211" lon="6.72607">
        <ele>319.78</ele>
        <time>2018-10-18T12:44:49Z</time>
      </trkpt>
      <trkpt lat="48.42107" lon="6.7259">
        <ele>320.26</ele>
        <time>2018-10-18T12:44:57Z</time>
      </trkpt>
      <trkpt lat="48.42103" lon="6.72577">
        <ele>319.78</ele>
        <time>2018-10-18T12:45:04Z</time>
      </trkpt>
      <trkpt lat="48.421" lon="6.72563">
        <ele>319.78</ele>
        <time>2018-10-18T12:45:12Z</time>
      </trkpt>
      <trkpt lat="48.42096" lon="6.72548">
        <ele>319.78</ele>
        <time>2018-10-18T12:45:20Z</time>
      </trkpt>
      <trkpt lat="48.42092" lon="6.72534">
        <ele>319.3</ele>
        <time>2018-10-18T12:45:28Z</time>
      </trkpt>
      <trkpt lat="48.42088" lon="6.72521">
        <ele>319.3</ele>
        <time>2018-10-18T12:45:36Z</time>
      </trkpt>
      <trkpt lat="48.42084" lon="6.72508">
        <ele>319.3</ele>
        <time>2018-10-18T12:45:44Z</time>
      </trkpt>
      <trkpt lat="48.42081" lon="6.72494">
        <ele>319.3</ele>
        <time>2018-10-18T12:45:52Z</time>
      </trkpt>
      <trkpt lat="48.42078" lon="6.72479">
        <ele>319.3</ele>
        <time>2018-10-18T12:46:00Z</time>
      </trkpt>
      <trkpt lat="48.42075" lon="6.72467">
        <ele>319.3</ele>
        <time>2018-10-18T12:46:08Z</time>
      </trkpt>
      <trkpt lat="48.42074" lon="6.72452">
        <ele>319.3</ele>
        <time>2018-10-18T12:46:16Z</time>
      </trkpt>
      <trkpt lat="48.42072" lon="6.72436">
        <ele>318.33</ele>
        <time>2018-10-18T12:46:24Z</time>
      </trkpt>
      <trkpt lat="48.42071" lon="6.72423">
        <ele>317.85</ele>
        <time>2018-10-18T12:46:32Z</time>
      </trkpt>
      <trkpt lat="48.42071" lon="6.72407">
        <ele>317.37</ele>
        <time>2018-10-18T12:46:40Z</time>
      </trkpt>
      <trkpt lat="48.4207" lon="6.72393">
        <ele>316.89</ele>
        <time>2018-10-18T12:46:48Z</time>
      </trkpt>
      <trkpt lat="48.42069" lon="6.72379">
        <ele>316.41</ele>
        <time>2018-10-18T12:46:56Z</time>
      </trkpt>
      <trkpt lat="48.42068" lon="6.72364">
        <ele>315.93</ele>
        <time>2018-10-18T12:47:04Z</time>
      </trkpt>
      <trkpt lat="48.42064" lon="6.7235">
        <ele>315.93</ele>
        <time>2018-10-18T12:47:12Z</time>
      </trkpt>
      <trkpt lat="48.42059" lon="6.72339">
        <ele>315.93</ele>
        <time>2018-10-18T12:47:20Z</time>
      </trkpt>
      <trkpt lat="48.42053" lon="6.72327">
        <ele>316.41</ele>
        <time>2018-10-18T12:47:28Z</time>
      </trkpt>
      <trkpt lat="48.42048" lon="6.72312">
        <ele>316.41</ele>
        <time>2018-10-18T12:47:37Z</time>
      </trkpt>
      <trkpt lat="48.4204" lon="6.72301">
        <ele>316.41</ele>
        <time>2018-10-18T12:47:45Z</time>
      </trkpt>
      <trkpt lat="48.42034" lon="6.72288">
        <ele>316.89</ele>
        <time>2018-10-18T12:47:53Z</time>
      </trkpt>
      <trkpt lat="48.42027" lon="6.72277">
        <ele>317.37</ele>
        <time>2018-10-18T12:48:01Z</time>
      </trkpt>
      <trkpt lat="48.42021" lon="6.72266">
        <ele>318.33</ele>
        <time>2018-10-18T12:48:09Z</time>
      </trkpt>
      <trkpt lat="48.42015" lon="6.72253">
        <ele>318.81</ele>
        <time>2018-10-18T12:48:18Z</time>
      </trkpt>
      <trkpt lat="48.42009" lon="6.72243">
        <ele>319.3</ele>
        <time>2018-10-18T12:48:26Z</time>
      </trkpt>
      <trkpt lat="48.42003" lon="6.72231">
        <ele>320.26</ele>
        <time>2018-10-18T12:48:35Z</time>
      </trkpt>
      <trkpt lat="48.41997" lon="6.7222">
        <ele>320.74</ele>
        <time>2018-10-18T12:48:43Z</time>
      </trkpt>
      <trkpt lat="48.41992" lon="6.72208">
        <ele>320.74</ele>
        <time>2018-10-18T12:48:51Z</time>
      </trkpt>
      <trkpt lat="48.41989" lon="6.72196">
        <ele>321.22</ele>
        <time>2018-10-18T12:48:59Z</time>
      </trkpt>
      <trkpt lat="48.41985" lon="6.72182">
        <ele>321.22</ele>
        <time>2018-10-18T12:49:07Z</time>
      </trkpt>
      <trkpt lat="48.41981" lon="6.72168">
        <ele>321.22</ele>
        <time>2018-10-18T12:49:15Z</time>
      </trkpt>
      <trkpt lat="48.41977" lon="6.72154">
        <ele>321.22</ele>
        <time>2018-10-18T12:49:23Z</time>
      </trkpt>
      <trkpt lat="48.41973" lon="6.7214">
        <ele>322.18</ele>
        <time>2018-10-18T12:49:32Z</time>
      </trkpt>
      <trkpt lat="48.4197" lon="6.72125">
        <ele>323.14</ele>
        <time>2018-10-18T12:49:41Z</time>
      </trkpt>
      <trkpt lat="48.41966" lon="6.72111">
        <ele>324.1</ele>
        <time>2018-10-18T12:49:49Z</time>
      </trkpt>
      <trkpt lat="48.41962" lon="6.72097">
        <ele>324.58</ele>
        <time>2018-10-18T12:49:58Z</time>
      </trkpt>
      <trkpt lat="48.41958" lon="6.72085">
        <ele>325.06</ele>
        <time>2018-10-18T12:50:07Z</time>
      </trkpt>
      <trkpt lat="48.41954" lon="6.72072">
        <ele>325.54</ele>
        <time>2018-10-18T12:50:16Z</time>
      </trkpt>
      <trkpt lat="48.41949" lon="6.72059">
        <ele>326.02</ele>
        <time>2018-10-18T12:50:32Z</time>
      </trkpt>
      <trkpt lat="48.41944" lon="6.72049">
        <ele>326.02</ele>
        <time>2018-10-18T12:50:44Z</time>
      </trkpt>
      <trkpt lat="48.4194" lon="6.72038">
        <ele>326.5</ele>
        <time>2018-10-18T12:50:56Z</time>
      </trkpt>
      <trkpt lat="48.41938" lon="6.72022">
        <ele>326.5</ele>
        <time>2018-10-18T12:51:05Z</time>
      </trkpt>
      <trkpt lat="48.41933" lon="6.72006">
        <ele>326.02</ele>
        <time>2018-10-18T12:51:14Z</time>
      </trkpt>
      <trkpt lat="48.41929" lon="6.71996">
        <ele>325.06</ele>
        <time>2018-10-18T12:51:25Z</time>
      </trkpt>
      <trkpt lat="48.41925" lon="6.71983">
        <ele>325.06</ele>
        <time>2018-10-18T12:51:43Z</time>
      </trkpt>
      <trkpt lat="48.41921" lon="6.7197">
        <ele>324.58</ele>
        <time>2018-10-18T12:51:52Z</time>
      </trkpt>
      <trkpt lat="48.41917" lon="6.71955">
        <ele>324.1</ele>
        <time>2018-10-18T12:52:02Z</time>
      </trkpt>
      <trkpt lat="48.41912" lon="6.71942">
        <ele>323.62</ele>
        <time>2018-10-18T12:52:11Z</time>
      </trkpt>
      <trkpt lat="48.41908" lon="6.71928">
        <ele>322.18</ele>
        <time>2018-10-18T12:52:20Z</time>
      </trkpt>
      <trkpt lat="48.41908" lon="6.71911">
        <ele>321.22</ele>
        <time>2018-10-18T12:52:29Z</time>
      </trkpt>
      <trkpt lat="48.41908" lon="6.71897">
        <ele>320.74</ele>
        <time>2018-10-18T12:52:45Z</time>
      </trkpt>
      <trkpt lat="48.41914" lon="6.71888">
        <ele>319.78</ele>
        <time>2018-10-18T12:52:56Z</time>
      </trkpt>
      <trkpt lat="48.4192" lon="6.71881">
        <ele>319.3</ele>
        <time>2018-10-18T12:53:06Z</time>
      </trkpt>
      <trkpt lat="48.41927" lon="6.71875">
        <ele>319.3</ele>
        <time>2018-10-18T12:53:19Z</time>
      </trkpt>
      <trkpt lat="48.41938" lon="6.7187">
        <ele>319.78</ele>
        <time>2018-10-18T12:53:31Z</time>
      </trkpt>
      <trkpt lat="48.41946" lon="6.71865">
        <ele>320.26</ele>
        <time>2018-10-18T12:53:54Z</time>
      </trkpt>
      <trkpt lat="48.4195" lon="6.71859">
        <ele>320.74</ele>
        <time>2018-10-18T12:55:55Z</time>
      </trkpt>
      <trkpt lat="48.41953" lon="6.71854">
        <ele>320.74</ele>
        <time>2018-10-18T12:57:48Z</time>
      </trkpt>
      <trkpt lat="48.41953" lon="6.71853">
        <ele>320.74</ele>
        <time>2018-10-18T13:00:16Z</time>
      </trkpt>
      <trkpt lat="48.41953" lon="6.71858">
        <ele>320.74</ele>
        <time>2018-10-18T13:01:45Z</time>
      </trkpt>
      <trkpt lat="48.41956" lon="6.71871">
        <ele>320.74</ele>
        <time>2018-10-18T13:01:57Z</time>
      </trkpt>
      <trkpt lat="48.4196" lon="6.71885">
        <ele>320.26</ele>
        <time>2018-10-18T13:02:06Z</time>
      </trkpt>
      <trkpt lat="48.41965" lon="6.71896">
        <ele>320.26</ele>
        <time>2018-10-18T13:02:15Z</time>
      </trkpt>
      <trkpt lat="48.41969" lon="6.71909">
        <ele>320.26</ele>
        <time>2018-10-18T13:02:25Z</time>
      </trkpt>
      <trkpt lat="48.41974" lon="6.71923">
        <ele>320.26</ele>
        <time>2018-10-18T13:02:34Z</time>
      </trkpt>
      <trkpt lat="48.41979" lon="6.71936">
        <ele>319.78</ele>
        <time>2018-10-18T13:02:42Z</time>
      </trkpt>
      <trkpt lat="48.41984" lon="6.71948">
        <ele>320.26</ele>
        <time>2018-10-18T13:02:50Z</time>
      </trkpt>
      <trkpt lat="48.41989" lon="6.7196">
        <ele>319.3</ele>
        <time>2018-10-18T13:02:58Z</time>
      </trkpt>
      <trkpt lat="48.41995" lon="6.71971">
        <ele>319.3</ele>
        <time>2018-10-18T13:03:07Z</time>
      </trkpt>
      <trkpt lat="48.42" lon="6.71984">
        <ele>319.3</ele>
        <time>2018-10-18T13:03:16Z</time>
      </trkpt>
      <trkpt lat="48.42007" lon="6.71995">
        <ele>319.78</ele>
        <time>2018-10-18T13:03:25Z</time>
      </trkpt>
      <trkpt lat="48.42013" lon="6.72008">
        <ele>319.3</ele>
        <time>2018-10-18T13:03:34Z</time>
      </trkpt>
      <trkpt lat="48.42018" lon="6.72021">
        <ele>319.3</ele>
        <time>2018-10-18T13:03:42Z</time>
      </trkpt>
      <trkpt lat="48.42025" lon="6.72034">
        <ele>319.78</ele>
        <time>2018-10-18T13:03:51Z</time>
      </trkpt>
      <trkpt lat="48.4203" lon="6.72047">
        <ele>319.78</ele>
        <time>2018-10-18T13:03:59Z</time>
      </trkpt>
      <trkpt lat="48.42035" lon="6.72061">
        <ele>319.78</ele>
        <time>2018-10-18T13:04:08Z</time>
      </trkpt>
      <trkpt lat="48.42039" lon="6.72074">
        <ele>319.78</ele>
        <time>2018-10-18T13:04:16Z</time>
      </trkpt>
      <trkpt lat="48.42043" lon="6.72087">
        <ele>319.78</ele>
        <time>2018-10-18T13:04:24Z</time>
      </trkpt>
      <trkpt lat="48.42048" lon="6.72102">
        <ele>319.78</ele>
        <time>2018-10-18T13:04:33Z</time>
      </trkpt>
      <trkpt lat="48.42052" lon="6.72118">
        <ele>319.78</ele>
        <time>2018-10-18T13:04:42Z</time>
      </trkpt>
      <trkpt lat="48.42056" lon="6.72133">
        <ele>320.26</ele>
        <time>2018-10-18T13:04:50Z</time>
      </trkpt>
      <trkpt lat="48.42061" lon="6.72146">
        <ele>320.26</ele>
        <time>2018-10-18T13:04:58Z</time>
      </trkpt>
      <trkpt lat="48.42065" lon="6.72159">
        <ele>320.74</ele>
        <time>2018-10-18T13:05:07Z</time>
      </trkpt>
      <trkpt lat="48.42071" lon="6.72172">
        <ele>320.74</ele>
        <time>2018-10-18T13:05:15Z</time>
      </trkpt>
      <trkpt lat="48.42076" lon="6.72185">
        <ele>320.74</ele>
        <time>2018-10-18T13:05:24Z</time>
      </trkpt>
      <trkpt lat="48.42083" lon="6.72198">
        <ele>320.26</ele>
        <time>2018-10-18T13:05:33Z</time>
      </trkpt>
      <trkpt lat="48.42087" lon="6.72213">
        <ele>320.74</ele>
        <time>2018-10-18T13:05:42Z</time>
      </trkpt>
      <trkpt lat="48.42092" lon="6.72226">
        <ele>320.74</ele>
        <time>2018-10-18T13:05:51Z</time>
      </trkpt>
      <trkpt lat="48.42099" lon="6.72235">
        <ele>320.74</ele>
        <time>2018-10-18T13:06:00Z</time>
      </trkpt>
      <trkpt lat="48.42104" lon="6.72249">
        <ele>320.74</ele>
        <time>2018-10-18T13:06:08Z</time>
      </trkpt>
      <trkpt lat="48.4211" lon="6.72261">
        <ele>321.22</ele>
        <time>2018-10-18T13:06:16Z</time>
      </trkpt>
      <trkpt lat="48.42116" lon="6.72272">
        <ele>322.18</ele>
        <time>2018-10-18T13:06:25Z</time>
      </trkpt>
      <trkpt lat="48.42124" lon="6.72283">
        <ele>322.66</ele>
        <time>2018-10-18T13:06:34Z</time>
      </trkpt>
      <trkpt lat="48.42131" lon="6.72292">
        <ele>323.14</ele>
        <time>2018-10-18T13:06:42Z</time>
      </trkpt>
      <trkpt lat="48.42139" lon="6.723">
        <ele>324.1</ele>
        <time>2018-10-18T13:06:50Z</time>
      </trkpt>
      <trkpt lat="48.42147" lon="6.72309">
        <ele>324.1</ele>
        <time>2018-10-18T13:06:59Z</time>
      </trkpt>
      <trkpt lat="48.42153" lon="6.72319">
        <ele>324.58</ele>
        <time>2018-10-18T13:07:08Z</time>
      </trkpt>
      <trkpt lat="48.42159" lon="6.7233">
        <ele>325.06</ele>
        <time>2018-10-18T13:07:18Z</time>
      </trkpt>
      <trkpt lat="48.42164" lon="6.72344">
        <ele>325.06</ele>
        <time>2018-10-18T13:07:27Z</time>
      </trkpt>
      <trkpt lat="48.42167" lon="6.72357">
        <ele>325.54</ele>
        <time>2018-10-18T13:07:36Z</time>
      </trkpt>
      <trkpt lat="48.42171" lon="6.72371">
        <ele>325.54</ele>
        <time>2018-10-18T13:07:45Z</time>
      </trkpt>
      <trkpt lat="48.42176" lon="6.72384">
        <ele>325.54</ele>
        <time>2018-10-18T13:07:54Z</time>
      </trkpt>
      <trkpt lat="48.42181" lon="6.72397">
        <ele>325.06</ele>
        <time>2018-10-18T13:08:03Z</time>
      </trkpt>
      <trkpt lat="48.42187" lon="6.72409">
        <ele>325.06</ele>
        <time>2018-10-18T13:08:12Z</time>
      </trkpt>
      <trkpt lat="48.42194" lon="6.72422">
        <ele>325.06</ele>
        <time>2018-10-18T13:08:21Z</time>
      </trkpt>
      <trkpt lat="48.422" lon="6.72436">
        <ele>325.06</ele>
        <time>2018-10-18T13:08:30Z</time>
      </trkpt>
      <trkpt lat="48.42208" lon="6.72447">
        <ele>325.54</ele>
        <time>2018-10-18T13:08:39Z</time>
      </trkpt>
      <trkpt lat="48.42214" lon="6.72458">
        <ele>326.02</ele>
        <time>2018-10-18T13:08:48Z</time>
      </trkpt>
      <trkpt lat="48.4222" lon="6.72469">
        <ele>326.02</ele>
        <time>2018-10-18T13:08:56Z</time>
      </trkpt>
      <trkpt lat="48.42227" lon="6.72479">
        <ele>326.02</ele>
        <time>2018-10-18T13:09:05Z</time>
      </trkpt>
      <trkpt lat="48.42234" lon="6.72492">
        <ele>326.5</ele>
        <time>2018-10-18T13:09:14Z</time>
      </trkpt>
      <trkpt lat="48.42242" lon="6.72503">
        <ele>326.5</ele>
        <time>2018-10-18T13:09:23Z</time>
      </trkpt>
      <trkpt lat="48.42248" lon="6.72515">
        <ele>326.99</ele>
        <time>2018-10-18T13:09:32Z</time>
      </trkpt>
      <trkpt lat="48.42253" lon="6.72529">
        <ele>326.5</ele>
        <time>2018-10-18T13:09:40Z</time>
      </trkpt>
      <trkpt lat="48.42259" lon="6.72542">
        <ele>326.99</ele>
        <time>2018-10-18T13:09:50Z</time>
      </trkpt>
      <trkpt lat="48.42265" lon="6.72555">
        <ele>326.5</ele>
        <time>2018-10-18T13:09:59Z</time>
      </trkpt>
      <trkpt lat="48.42269" lon="6.72568">
        <ele>326.5</ele>
        <time>2018-10-18T13:10:08Z</time>
      </trkpt>
      <trkpt lat="48.42273" lon="6.72582">
        <ele>326.02</ele>
        <time>2018-10-18T13:10:18Z</time>
      </trkpt>
      <trkpt lat="48.42278" lon="6.72594">
        <ele>326.02</ele>
        <time>2018-10-18T13:10:33Z</time>
      </trkpt>
      <trkpt lat="48.42283" lon="6.72611">
        <ele>325.06</ele>
        <time>2018-10-18T13:10:45Z</time>
      </trkpt>
      <trkpt lat="48.42285" lon="6.72627">
        <ele>324.58</ele>
        <time>2018-10-18T13:10:54Z</time>
      </trkpt>
      <trkpt lat="48.42289" lon="6.72643">
        <ele>324.1</ele>
        <time>2018-10-18T13:11:05Z</time>
      </trkpt>
      <trkpt lat="48.42295" lon="6.7266">
        <ele>323.62</ele>
        <time>2018-10-18T13:11:16Z</time>
      </trkpt>
      <trkpt lat="48.42297" lon="6.72677">
        <ele>323.14</ele>
        <time>2018-10-18T13:11:25Z</time>
      </trkpt>
      <trkpt lat="48.42301" lon="6.72689">
        <ele>322.66</ele>
        <time>2018-10-18T13:11:35Z</time>
      </trkpt>
      <trkpt lat="48.42305" lon="6.72704">
        <ele>322.18</ele>
        <time>2018-10-18T13:11:44Z</time>
      </trkpt>
      <trkpt lat="48.42309" lon="6.72719">
        <ele>322.18</ele>
        <time>2018-10-18T13:11:53Z</time>
      </trkpt>
      <trkpt lat="48.42313" lon="6.72733">
        <ele>321.7</ele>
        <time>2018-10-18T13:12:02Z</time>
      </trkpt>
      <trkpt lat="48.42319" lon="6.72746">
        <ele>321.22</ele>
        <time>2018-10-18T13:12:12Z</time>
      </trkpt>
      <trkpt lat="48.42323" lon="6.72759">
        <ele>320.74</ele>
        <time>2018-10-18T13:12:22Z</time>
      </trkpt>
      <trkpt lat="48.42327" lon="6.72775">
        <ele>320.74</ele>
        <time>2018-10-18T13:12:31Z</time>
      </trkpt>
      <trkpt lat="48.4233" lon="6.72794">
        <ele>320.74</ele>
        <time>2018-10-18T13:12:41Z</time>
      </trkpt>
      <trkpt lat="48.42334" lon="6.72806">
        <ele>320.26</ele>
        <time>2018-10-18T13:12:50Z</time>
      </trkpt>
      <trkpt lat="48.42341" lon="6.7282">
        <ele>319.3</ele>
        <time>2018-10-18T13:13:00Z</time>
      </trkpt>
      <trkpt lat="48.42348" lon="6.72836">
        <ele>317.85</ele>
        <time>2018-10-18T13:13:12Z</time>
      </trkpt>
      <trkpt lat="48.42357" lon="6.72853">
        <ele>316.41</ele>
        <time>2018-10-18T13:13:37Z</time>
      </trkpt>
      <trkpt lat="48.42367" lon="6.72861">
        <ele>315.93</ele>
        <time>2018-10-18T13:13:56Z</time>
      </trkpt>
      <trkpt lat="48.42374" lon="6.7287">
        <ele>315.45</ele>
        <time>2018-10-18T13:14:05Z</time>
      </trkpt>
      <trkpt lat="48.42377" lon="6.72883">
        <ele>315.93</ele>
        <time>2018-10-18T13:14:14Z</time>
      </trkpt>
      <trkpt lat="48.42383" lon="6.72895">
        <ele>315.45</ele>
        <time>2018-10-18T13:14:23Z</time>
      </trkpt>
      <trkpt lat="48.42389" lon="6.72909">
        <ele>315.93</ele>
        <time>2018-10-18T13:14:32Z</time>
      </trkpt>
      <trkpt lat="48.42395" lon="6.72922">
        <ele>315.93</ele>
        <time>2018-10-18T13:14:41Z</time>
      </trkpt>
      <trkpt lat="48.424" lon="6.72934">
        <ele>315.93</ele>
        <time>2018-10-18T13:14:50Z</time>
      </trkpt>
      <trkpt lat="48.42405" lon="6.72947">
        <ele>316.41</ele>
        <time>2018-10-18T13:14:59Z</time>
      </trkpt>
      <trkpt lat="48.42408" lon="6.7296">
        <ele>316.89</ele>
        <time>2018-10-18T13:15:08Z</time>
      </trkpt>
      <trkpt lat="48.42412" lon="6.72972">
        <ele>317.37</ele>
        <time>2018-10-18T13:15:18Z</time>
      </trkpt>
      <trkpt lat="48.42416" lon="6.72985">
        <ele>317.85</ele>
        <time>2018-10-18T13:15:29Z</time>
      </trkpt>
      <trkpt lat="48.4242" lon="6.72997">
        <ele>318.33</ele>
        <time>2018-10-18T13:15:39Z</time>
      </trkpt>
      <trkpt lat="48.42423" lon="6.73011">
        <ele>318.81</ele>
        <time>2018-10-18T13:15:48Z</time>
      </trkpt>
      <trkpt lat="48.42427" lon="6.73024">
        <ele>319.3</ele>
        <time>2018-10-18T13:15:58Z</time>
      </trkpt>
      <trkpt lat="48.4243" lon="6.73037">
        <ele>319.78</ele>
        <time>2018-10-18T13:16:09Z</time>
      </trkpt>
      <trkpt lat="48.42431" lon="6.73056">
        <ele>320.74</ele>
        <time>2018-10-18T13:16:20Z</time>
      </trkpt>
      <trkpt lat="48.42431" lon="6.73076">
        <ele>321.22</ele>
        <time>2018-10-18T13:16:30Z</time>
      </trkpt>
      <trkpt lat="48.42436" lon="6.73088">
        <ele>321.7</ele>
        <time>2018-10-18T13:16:40Z</time>
      </trkpt>
      <trkpt lat="48.42441" lon="6.73102">
        <ele>322.18</ele>
        <time>2018-10-18T13:16:50Z</time>
      </trkpt>
      <trkpt lat="48.42445" lon="6.73115">
        <ele>322.66</ele>
        <time>2018-10-18T13:17:00Z</time>
      </trkpt>
      <trkpt lat="48.4245" lon="6.73128">
        <ele>322.66</ele>
        <time>2018-10-18T13:17:10Z</time>
      </trkpt>
      <trkpt lat="48.42455" lon="6.73143">
        <ele>323.14</ele>
        <time>2018-10-18T13:17:20Z</time>
      </trkpt>
      <trkpt lat="48.42459" lon="6.73157">
        <ele>323.62</ele>
        <time>2018-10-18T13:17:30Z</time>
      </trkpt>
      <trkpt lat="48.42463" lon="6.7317">
        <ele>323.62</ele>
        <time>2018-10-18T13:17:40Z</time>
      </trkpt>
      <trkpt lat="48.42469" lon="6.73186">
        <ele>323.62</ele>
        <time>2018-10-18T13:17:50Z</time>
      </trkpt>
      <trkpt lat="48.42473" lon="6.73201">
        <ele>324.1</ele>
        <time>2018-10-18T13:17:59Z</time>
      </trkpt>
      <trkpt lat="48.42478" lon="6.73214">
        <ele>324.1</ele>
        <time>2018-10-18T13:18:08Z</time>
      </trkpt>
      <trkpt lat="48.42483" lon="6.73227">
        <ele>324.58</ele>
        <time>2018-10-18T13:18:17Z</time>
      </trkpt>
      <trkpt lat="48.42488" lon="6.73243">
        <ele>324.58</ele>
        <time>2018-10-18T13:18:28Z</time>
      </trkpt>
      <trkpt lat="48.42495" lon="6.73263">
        <ele>323.62</ele>
        <time>2018-10-18T13:18:44Z</time>
      </trkpt>
      <trkpt lat="48.42503" lon="6.73274">
        <ele>323.62</ele>
        <time>2018-10-18T13:19:06Z</time>
      </trkpt>
      <trkpt lat="48.42508" lon="6.73272">
        <ele>323.62</ele>
        <time>2018-10-18T13:23:00Z</time>
      </trkpt>
      <trkpt lat="48.42516" lon="6.73272">
        <ele>324.1</ele>
        <time>2018-10-18T13:23:10Z</time>
      </trkpt>
      <trkpt lat="48.42524" lon="6.7327">
        <ele>324.1</ele>
        <time>2018-10-18T13:23:19Z</time>
      </trkpt>
      <trkpt lat="48.42534" lon="6.73274">
        <ele>325.06</ele>
        <time>2018-10-18T13:23:29Z</time>
      </trkpt>
      <trkpt lat="48.42542" lon="6.73284">
        <ele>325.54</ele>
        <time>2018-10-18T13:23:38Z</time>
      </trkpt>
      <trkpt lat="48.42548" lon="6.73294">
        <ele>325.54</ele>
        <time>2018-10-18T13:23:46Z</time>
      </trkpt>
      <trkpt lat="48.42554" lon="6.73305">
        <ele>326.02</ele>
        <time>2018-10-18T13:23:54Z</time>
      </trkpt>
      <trkpt lat="48.42561" lon="6.73316">
        <ele>326.5</ele>
        <time>2018-10-18T13:24:02Z</time>
      </trkpt>
      <trkpt lat="48.42566" lon="6.73329">
        <ele>326.99</ele>
        <time>2018-10-18T13:24:10Z</time>
      </trkpt>
      <trkpt lat="48.42573" lon="6.7334">
        <ele>326.99</ele>
        <time>2018-10-18T13:24:18Z</time>
      </trkpt>
      <trkpt lat="48.42579" lon="6.73352">
        <ele>326.99</ele>
        <time>2018-10-18T13:24:26Z</time>
      </trkpt>
      <trkpt lat="48.42585" lon="6.73362">
        <ele>326.99</ele>
        <time>2018-10-18T13:24:34Z</time>
      </trkpt>
      <trkpt lat="48.42591" lon="6.73373">
        <ele>326.99</ele>
        <time>2018-10-18T13:24:42Z</time>
      </trkpt>
      <trkpt lat="48.42598" lon="6.73384">
        <ele>327.47</ele>
        <time>2018-10-18T13:24:50Z</time>
      </trkpt>
      <trkpt lat="48.42605" lon="6.73395">
        <ele>327.47</ele>
        <time>2018-10-18T13:24:58Z</time>
      </trkpt>
      <trkpt lat="48.42612" lon="6.73405">
        <ele>327.47</ele>
        <time>2018-10-18T13:25:06Z</time>
      </trkpt>
      <trkpt lat="48.42619" lon="6.73413">
        <ele>327.47</ele>
        <time>2018-10-18T13:25:23Z</time>
      </trkpt>
      <trkpt lat="48.42626" lon="6.73423">
        <ele>326.99</ele>
        <time>2018-10-18T13:25:31Z</time>
      </trkpt>
      <trkpt lat="48.42633" lon="6.73431">
        <ele>327.95</ele>
        <time>2018-10-18T13:25:39Z</time>
      </trkpt>
      <trkpt lat="48.4264" lon="6.7344">
        <ele>327.95</ele>
        <time>2018-10-18T13:25:47Z</time>
      </trkpt>
      <trkpt lat="48.42647" lon="6.7345">
        <ele>327.95</ele>
        <time>2018-10-18T13:25:55Z</time>
      </trkpt>
      <trkpt lat="48.42655" lon="6.73458">
        <ele>327.95</ele>
        <time>2018-10-18T13:26:04Z</time>
      </trkpt>
      <trkpt lat="48.42664" lon="6.73465">
        <ele>328.43</ele>
        <time>2018-10-18T13:26:12Z</time>
      </trkpt>
      <trkpt lat="48.42673" lon="6.7347">
        <ele>328.43</ele>
        <time>2018-10-18T13:26:20Z</time>
      </trkpt>
      <trkpt lat="48.42683" lon="6.73472">
        <ele>328.91</ele>
        <time>2018-10-18T13:26:29Z</time>
      </trkpt>
      <trkpt lat="48.42692" lon="6.73473">
        <ele>328.91</ele>
        <time>2018-10-18T13:26:38Z</time>
      </trkpt>
      <trkpt lat="48.42701" lon="6.7347">
        <ele>329.39</ele>
        <time>2018-10-18T13:26:46Z</time>
      </trkpt>
      <trkpt lat="48.42711" lon="6.7347">
        <ele>329.87</ele>
        <time>2018-10-18T13:26:55Z</time>
      </trkpt>
      <trkpt lat="48.4272" lon="6.73474">
        <ele>330.35</ele>
        <time>2018-10-18T13:27:03Z</time>
      </trkpt>
      <trkpt lat="48.42728" lon="6.73483">
        <ele>330.83</ele>
        <time>2018-10-18T13:27:12Z</time>
      </trkpt>
      <trkpt lat="48.42735" lon="6.73492">
        <ele>331.79</ele>
        <time>2018-10-18T13:27:21Z</time>
      </trkpt>
      <trkpt lat="48.42742" lon="6.73502">
        <ele>332.27</ele>
        <time>2018-10-18T13:27:30Z</time>
      </trkpt>
      <trkpt lat="48.42749" lon="6.7351">
        <ele>332.75</ele>
        <time>2018-10-18T13:27:39Z</time>
      </trkpt>
      <trkpt lat="48.42755" lon="6.73519">
        <ele>333.23</ele>
        <time>2018-10-18T13:27:47Z</time>
      </trkpt>
      <trkpt lat="48.42763" lon="6.73528">
        <ele>333.71</ele>
        <time>2018-10-18T13:27:56Z</time>
      </trkpt>
      <trkpt lat="48.42771" lon="6.73539">
        <ele>334.2</ele>
        <time>2018-10-18T13:28:05Z</time>
      </trkpt>
      <trkpt lat="48.42778" lon="6.73547">
        <ele>334.2</ele>
        <time>2018-10-18T13:28:13Z</time>
      </trkpt>
      <trkpt lat="48.42785" lon="6.73557">
        <ele>334.68</ele>
        <time>2018-10-18T13:28:22Z</time>
      </trkpt>
      <trkpt lat="48.42793" lon="6.73567">
        <ele>335.16</ele>
        <time>2018-10-18T13:28:31Z</time>
      </trkpt>
      <trkpt lat="48.428" lon="6.73575">
        <ele>335.64</ele>
        <time>2018-10-18T13:28:39Z</time>
      </trkpt>
      <trkpt lat="48.42807" lon="6.73584">
        <ele>335.64</ele>
        <time>2018-10-18T13:28:47Z</time>
      </trkpt>
      <trkpt lat="48.42815" lon="6.73591">
        <ele>336.12</ele>
        <time>2018-10-18T13:28:55Z</time>
      </trkpt>
      <trkpt lat="48.42824" lon="6.73599">
        <ele>336.6</ele>
        <time>2018-10-18T13:29:03Z</time>
      </trkpt>
      <trkpt lat="48.42832" lon="6.73605">
        <ele>336.6</ele>
        <time>2018-10-18T13:29:11Z</time>
      </trkpt>
      <trkpt lat="48.42841" lon="6.73613">
        <ele>337.08</ele>
        <time>2018-10-18T13:29:20Z</time>
      </trkpt>
      <trkpt lat="48.4285" lon="6.73618">
        <ele>338.04</ele>
        <time>2018-10-18T13:29:29Z</time>
      </trkpt>
      <trkpt lat="48.42859" lon="6.73624">
        <ele>339</ele>
        <time>2018-10-18T13:29:38Z</time>
      </trkpt>
      <trkpt lat="48.42868" lon="6.73629">
        <ele>339.48</ele>
        <time>2018-10-18T13:29:47Z</time>
      </trkpt>
      <trkpt lat="48.42875" lon="6.73634">
        <ele>339.48</ele>
        <time>2018-10-18T13:29:55Z</time>
      </trkpt>
      <trkpt lat="48.42884" lon="6.73641">
        <ele>339.96</ele>
        <time>2018-10-18T13:30:04Z</time>
      </trkpt>
      <trkpt lat="48.42892" lon="6.7365">
        <ele>340.44</ele>
        <time>2018-10-18T13:30:13Z</time>
      </trkpt>
      <trkpt lat="48.429" lon="6.73659">
        <ele>340.44</ele>
        <time>2018-10-18T13:30:22Z</time>
      </trkpt>
      <trkpt lat="48.42908" lon="6.7367">
        <ele>340.92</ele>
        <time>2018-10-18T13:30:31Z</time>
      </trkpt>
      <trkpt lat="48.42914" lon="6.73678">
        <ele>340.92</ele>
        <time>2018-10-18T13:30:39Z</time>
      </trkpt>
      <trkpt lat="48.42921" lon="6.73687">
        <ele>341.41</ele>
        <time>2018-10-18T13:30:47Z</time>
      </trkpt>
      <trkpt lat="48.42928" lon="6.73696">
        <ele>340.92</ele>
        <time>2018-10-18T13:30:55Z</time>
      </trkpt>
      <trkpt lat="48.42935" lon="6.73705">
        <ele>341.41</ele>
        <time>2018-10-18T13:31:03Z</time>
      </trkpt>
      <trkpt lat="48.42942" lon="6.73715">
        <ele>341.41</ele>
        <time>2018-10-18T13:31:11Z</time>
      </trkpt>
      <trkpt lat="48.42949" lon="6.73723">
        <ele>341.41</ele>
        <time>2018-10-18T13:31:19Z</time>
      </trkpt>
      <trkpt lat="48.42958" lon="6.73731">
        <ele>341.41</ele>
        <time>2018-10-18T13:31:27Z</time>
      </trkpt>
      <trkpt lat="48.42967" lon="6.73736">
        <ele>340.92</ele>
        <time>2018-10-18T13:31:35Z</time>
      </trkpt>
      <trkpt lat="48.42976" lon="6.73741">
        <ele>340.92</ele>
        <time>2018-10-18T13:31:43Z</time>
      </trkpt>
      <trkpt lat="48.42986" lon="6.73742">
        <ele>340.44</ele>
        <time>2018-10-18T13:31:52Z</time>
      </trkpt>
      <trkpt lat="48.42994" lon="6.73743">
        <ele>340.44</ele>
        <time>2018-10-18T13:32:00Z</time>
      </trkpt>
      <trkpt lat="48.43004" lon="6.73741">
        <ele>339.96</ele>
        <time>2018-10-18T13:32:10Z</time>
      </trkpt>
      <trkpt lat="48.43014" lon="6.73737">
        <ele>339.96</ele>
        <time>2018-10-18T13:32:20Z</time>
      </trkpt>
      <trkpt lat="48.43025" lon="6.73734">
        <ele>339.96</ele>
        <time>2018-10-18T13:32:29Z</time>
      </trkpt>
      <trkpt lat="48.43037" lon="6.73731">
        <ele>340.44</ele>
        <time>2018-10-18T13:32:38Z</time>
      </trkpt>
      <trkpt lat="48.43047" lon="6.7373">
        <ele>340.44</ele>
        <time>2018-10-18T13:32:47Z</time>
      </trkpt>
      <trkpt lat="48.43058" lon="6.73727">
        <ele>340.92</ele>
        <time>2018-10-18T13:32:56Z</time>
      </trkpt>
      <trkpt lat="48.43068" lon="6.73728">
        <ele>341.89</ele>
        <time>2018-10-18T13:33:05Z</time>
      </trkpt>
      <trkpt lat="48.43078" lon="6.7373">
        <ele>342.37</ele>
        <time>2018-10-18T13:33:14Z</time>
      </trkpt>
      <trkpt lat="48.43088" lon="6.73734">
        <ele>342.37</ele>
        <time>2018-10-18T13:33:23Z</time>
      </trkpt>
      <trkpt lat="48.43098" lon="6.73737">
        <ele>342.85</ele>
        <time>2018-10-18T13:33:32Z</time>
      </trkpt>
      <trkpt lat="48.43108" lon="6.7374">
        <ele>343.33</ele>
        <time>2018-10-18T13:33:42Z</time>
      </trkpt>
      <trkpt lat="48.43118" lon="6.73743">
        <ele>344.29</ele>
        <time>2018-10-18T13:33:52Z</time>
      </trkpt>
      <trkpt lat="48.43128" lon="6.73747">
        <ele>345.25</ele>
        <time>2018-10-18T13:34:02Z</time>
      </trkpt>
      <trkpt lat="48.43138" lon="6.73752">
        <ele>346.21</ele>
        <time>2018-10-18T13:34:12Z</time>
      </trkpt>
      <trkpt lat="48.4315" lon="6.73757">
        <ele>346.69</ele>
        <time>2018-10-18T13:34:22Z</time>
      </trkpt>
      <trkpt lat="48.4316" lon="6.73762">
        <ele>347.65</ele>
        <time>2018-10-18T13:34:32Z</time>
      </trkpt>
      <trkpt lat="48.43169" lon="6.73768">
        <ele>348.13</ele>
        <time>2018-10-18T13:34:41Z</time>
      </trkpt>
      <trkpt lat="48.43177" lon="6.73776">
        <ele>348.62</ele>
        <time>2018-10-18T13:34:51Z</time>
      </trkpt>
      <trkpt lat="48.43189" lon="6.73779">
        <ele>349.1</ele>
        <time>2018-10-18T13:35:01Z</time>
      </trkpt>
      <trkpt lat="48.43201" lon="6.7378">
        <ele>349.1</ele>
        <time>2018-10-18T13:35:11Z</time>
      </trkpt>
      <trkpt lat="48.43211" lon="6.7378">
        <ele>349.58</ele>
        <time>2018-10-18T13:35:21Z</time>
      </trkpt>
      <trkpt lat="48.43222" lon="6.7378">
        <ele>350.54</ele>
        <time>2018-10-18T13:35:31Z</time>
      </trkpt>
      <trkpt lat="48.43231" lon="6.73778">
        <ele>350.54</ele>
        <time>2018-10-18T13:35:39Z</time>
      </trkpt>
      <trkpt lat="48.43241" lon="6.73775">
        <ele>351.02</ele>
        <time>2018-10-18T13:35:48Z</time>
      </trkpt>
      <trkpt lat="48.43255" lon="6.73771">
        <ele>351.5</ele>
        <time>2018-10-18T13:35:57Z</time>
      </trkpt>
      <trkpt lat="48.43264" lon="6.73768">
        <ele>352.46</ele>
        <time>2018-10-18T13:36:07Z</time>
      </trkpt>
      <trkpt lat="48.43273" lon="6.73766">
        <ele>352.46</ele>
        <time>2018-10-18T13:36:19Z</time>
      </trkpt>
      <trkpt lat="48.43275" lon="6.73764">
        <ele>352.46</ele>
        <time>2018-10-18T13:38:54Z</time>
      </trkpt>
      <trkpt lat="48.43271" lon="6.73755">
        <ele>351.98</ele>
        <time>2018-10-18T13:39:48Z</time>
      </trkpt>
      <trkpt lat="48.43263" lon="6.73748">
        <ele>351.98</ele>
        <time>2018-10-18T13:39:59Z</time>
      </trkpt>
      <trkpt lat="48.43251" lon="6.73742">
        <ele>352.46</ele>
        <time>2018-10-18T13:40:10Z</time>
      </trkpt>
      <trkpt lat="48.4324" lon="6.73741">
        <ele>352.46</ele>
        <time>2018-10-18T13:40:19Z</time>
      </trkpt>
      <trkpt lat="48.4323" lon="6.73738">
        <ele>352.46</ele>
        <time>2018-10-18T13:40:28Z</time>
      </trkpt>
      <trkpt lat="48.43221" lon="6.73733">
        <ele>352.46</ele>
        <time>2018-10-18T13:40:38Z</time>
      </trkpt>
      <trkpt lat="48.43214" lon="6.73723">
        <ele>352.46</ele>
        <time>2018-10-18T13:40:48Z</time>
      </trkpt>
      <trkpt lat="48.43208" lon="6.7371">
        <ele>352.94</ele>
        <time>2018-10-18T13:40:57Z</time>
      </trkpt>
      <trkpt lat="48.43203" lon="6.73698">
        <ele>352.94</ele>
        <time>2018-10-18T13:41:06Z</time>
      </trkpt>
      <trkpt lat="48.43197" lon="6.73684">
        <ele>352.94</ele>
        <time>2018-10-18T13:41:17Z</time>
      </trkpt>
      <trkpt lat="48.43191" lon="6.73669">
        <ele>352.46</ele>
        <time>2018-10-18T13:41:27Z</time>
      </trkpt>
      <trkpt lat="48.43186" lon="6.73656">
        <ele>352.94</ele>
        <time>2018-10-18T13:41:37Z</time>
      </trkpt>
      <trkpt lat="48.43181" lon="6.73643">
        <ele>352.94</ele>
        <time>2018-10-18T13:41:47Z</time>
      </trkpt>
      <trkpt lat="48.43178" lon="6.73629">
        <ele>353.9</ele>
        <time>2018-10-18T13:41:58Z</time>
      </trkpt>
      <trkpt lat="48.43174" lon="6.73616">
        <ele>353.9</ele>
        <time>2018-10-18T13:42:07Z</time>
      </trkpt>
      <trkpt lat="48.43166" lon="6.73601">
        <ele>354.38</ele>
        <time>2018-10-18T13:42:16Z</time>
      </trkpt>
      <trkpt lat="48.43161" lon="6.73589">
        <ele>354.86</ele>
        <time>2018-10-18T13:42:25Z</time>
      </trkpt>
      <trkpt lat="48.43157" lon="6.73574">
        <ele>355.83</ele>
        <time>2018-10-18T13:42:35Z</time>
      </trkpt>
      <trkpt lat="48.43152" lon="6.73561">
        <ele>356.31</ele>
        <time>2018-10-18T13:42:44Z</time>
      </trkpt>
      <trkpt lat="48.43147" lon="6.73548">
        <ele>357.27</ele>
        <time>2018-10-18T13:42:53Z</time>
      </trkpt>
      <trkpt lat="48.43141" lon="6.73535">
        <ele>357.27</ele>
        <time>2018-10-18T13:43:02Z</time>
      </trkpt>
      <trkpt lat="48.43133" lon="6.73521">
        <ele>357.75</ele>
        <time>2018-10-18T13:43:11Z</time>
      </trkpt>
      <trkpt lat="48.43126" lon="6.73508">
        <ele>358.71</ele>
        <time>2018-10-18T13:43:21Z</time>
      </trkpt>
      <trkpt lat="48.43119" lon="6.73495">
        <ele>358.71</ele>
        <time>2018-10-18T13:43:30Z</time>
      </trkpt>
      <trkpt lat="48.43113" lon="6.73482">
        <ele>359.19</ele>
        <time>2018-10-18T13:43:39Z</time>
      </trkpt>
      <trkpt lat="48.43109" lon="6.73468">
        <ele>359.19</ele>
        <time>2018-10-18T13:43:48Z</time>
      </trkpt>
      <trkpt lat="48.43106" lon="6.73454">
        <ele>359.67</ele>
        <time>2018-10-18T13:43:57Z</time>
      </trkpt>
      <trkpt lat="48.431" lon="6.73441">
        <ele>359.19</ele>
        <time>2018-10-18T13:44:06Z</time>
      </trkpt>
      <trkpt lat="48.43095" lon="6.73428">
        <ele>359.67</ele>
        <time>2018-10-18T13:44:15Z</time>
      </trkpt>
      <trkpt lat="48.4309" lon="6.73414">
        <ele>360.15</ele>
        <time>2018-10-18T13:44:24Z</time>
      </trkpt>
      <trkpt lat="48.43082" lon="6.734">
        <ele>360.63</ele>
        <time>2018-10-18T13:44:33Z</time>
      </trkpt>
      <trkpt lat="48.43076" lon="6.73386">
        <ele>361.11</ele>
        <time>2018-10-18T13:44:42Z</time>
      </trkpt>
      <trkpt lat="48.43071" lon="6.73373">
        <ele>361.11</ele>
        <time>2018-10-18T13:44:51Z</time>
      </trkpt>
      <trkpt lat="48.43064" lon="6.73359">
        <ele>361.59</ele>
        <time>2018-10-18T13:45:00Z</time>
      </trkpt>
      <trkpt lat="48.43058" lon="6.73346">
        <ele>362.07</ele>
        <time>2018-10-18T13:45:09Z</time>
      </trkpt>
      <trkpt lat="48.43049" lon="6.73331">
        <ele>363.04</ele>
        <time>2018-10-18T13:45:19Z</time>
      </trkpt>
      <trkpt lat="48.43041" lon="6.73317">
        <ele>363.04</ele>
        <time>2018-10-18T13:45:28Z</time>
      </trkpt>
      <trkpt lat="48.43034" lon="6.73305">
        <ele>364</ele>
        <time>2018-10-18T13:45:37Z</time>
      </trkpt>
      <trkpt lat="48.43026" lon="6.73293">
        <ele>364</ele>
        <time>2018-10-18T13:45:45Z</time>
      </trkpt>
      <trkpt lat="48.4302" lon="6.73281">
        <ele>364</ele>
        <time>2018-10-18T13:45:53Z</time>
      </trkpt>
      <trkpt lat="48.43013" lon="6.73269">
        <ele>364</ele>
        <time>2018-10-18T13:46:01Z</time>
      </trkpt>
      <trkpt lat="48.43007" lon="6.73258">
        <ele>364.48</ele>
        <time>2018-10-18T13:46:09Z</time>
      </trkpt>
      <trkpt lat="48.43001" lon="6.73246">
        <ele>364.48</ele>
        <time>2018-10-18T13:46:17Z</time>
      </trkpt>
      <trkpt lat="48.42994" lon="6.73235">
        <ele>364.48</ele>
        <time>2018-10-18T13:46:25Z</time>
      </trkpt>
      <trkpt lat="48.42988" lon="6.73223">
        <ele>364.96</ele>
        <time>2018-10-18T13:46:33Z</time>
      </trkpt>
      <trkpt lat="48.42982" lon="6.73213">
        <ele>364.96</ele>
        <time>2018-10-18T13:46:41Z</time>
      </trkpt>
      <trkpt lat="48.42976" lon="6.73201">
        <ele>365.44</ele>
        <time>2018-10-18T13:46:49Z</time>
      </trkpt>
      <trkpt lat="48.4297" lon="6.7319">
        <ele>365.44</ele>
        <time>2018-10-18T13:46:57Z</time>
      </trkpt>
      <trkpt lat="48.42965" lon="6.73178">
        <ele>365.92</ele>
        <time>2018-10-18T13:47:05Z</time>
      </trkpt>
      <trkpt lat="48.42962" lon="6.73165">
        <ele>366.4</ele>
        <time>2018-10-18T13:47:13Z</time>
      </trkpt>
      <trkpt lat="48.42962" lon="6.7315">
        <ele>366.4</ele>
        <time>2018-10-18T13:47:21Z</time>
      </trkpt>
      <trkpt lat="48.4296" lon="6.73136">
        <ele>366.88</ele>
        <time>2018-10-18T13:47:29Z</time>
      </trkpt>
      <trkpt lat="48.4296" lon="6.73123">
        <ele>367.36</ele>
        <time>2018-10-18T13:47:37Z</time>
      </trkpt>
      <trkpt lat="48.42962" lon="6.7311">
        <ele>367.36</ele>
        <time>2018-10-18T13:47:45Z</time>
      </trkpt>
      <trkpt lat="48.42966" lon="6.73098">
        <ele>367.36</ele>
        <time>2018-10-18T13:47:53Z</time>
      </trkpt>
      <trkpt lat="48.4297" lon="6.73083">
        <ele>367.36</ele>
        <time>2018-10-18T13:48:02Z</time>
      </trkpt>
      <trkpt lat="48.42972" lon="6.73069">
        <ele>367.84</ele>
        <time>2018-10-18T13:48:10Z</time>
      </trkpt>
      <trkpt lat="48.42973" lon="6.73055">
        <ele>367.84</ele>
        <time>2018-10-18T13:48:18Z</time>
      </trkpt>
      <trkpt lat="48.42974" lon="6.73041">
        <ele>368.32</ele>
        <time>2018-10-18T13:48:26Z</time>
      </trkpt>
      <trkpt lat="48.42974" lon="6.73026">
        <ele>368.8</ele>
        <time>2018-10-18T13:48:34Z</time>
      </trkpt>
      <trkpt lat="48.42973" lon="6.73012">
        <ele>368.8</ele>
        <time>2018-10-18T13:48:42Z</time>
      </trkpt>
      <trkpt lat="48.42973" lon="6.72997">
        <ele>368.8</ele>
        <time>2018-10-18T13:48:50Z</time>
      </trkpt>
      <trkpt lat="48.42972" lon="6.72983">
        <ele>368.8</ele>
        <time>2018-10-18T13:48:58Z</time>
      </trkpt>
      <trkpt lat="48.42971" lon="6.72969">
        <ele>368.8</ele>
        <time>2018-10-18T13:49:06Z</time>
      </trkpt>
      <trkpt lat="48.42971" lon="6.72955">
        <ele>369.28</ele>
        <time>2018-10-18T13:49:14Z</time>
      </trkpt>
      <trkpt lat="48.42973" lon="6.72942">
        <ele>369.76</ele>
        <time>2018-10-18T13:49:24Z</time>
      </trkpt>
      <trkpt lat="48.42975" lon="6.72929">
        <ele>369.28</ele>
        <time>2018-10-18T13:49:35Z</time>
      </trkpt>
      <trkpt lat="48.42979" lon="6.72916">
        <ele>369.76</ele>
        <time>2018-10-18T13:49:42Z</time>
      </trkpt>
      <trkpt lat="48.42984" lon="6.72903">
        <ele>369.76</ele>
        <time>2018-10-18T13:49:50Z</time>
      </trkpt>
      <trkpt lat="48.42989" lon="6.72891">
        <ele>370.24</ele>
        <time>2018-10-18T13:49:57Z</time>
      </trkpt>
      <trkpt lat="48.42994" lon="6.72879">
        <ele>370.73</ele>
        <time>2018-10-18T13:50:04Z</time>
      </trkpt>
      <trkpt lat="48.43" lon="6.72867">
        <ele>371.69</ele>
        <time>2018-10-18T13:50:12Z</time>
      </trkpt>
      <trkpt lat="48.43006" lon="6.72857">
        <ele>371.69</ele>
        <time>2018-10-18T13:50:20Z</time>
      </trkpt>
      <trkpt lat="48.43012" lon="6.72845">
        <ele>372.65</ele>
        <time>2018-10-18T13:50:29Z</time>
      </trkpt>
      <trkpt lat="48.43018" lon="6.72834">
        <ele>372.65</ele>
        <time>2018-10-18T13:50:37Z</time>
      </trkpt>
      <trkpt lat="48.43024" lon="6.72824">
        <ele>372.65</ele>
        <time>2018-10-18T13:50:45Z</time>
      </trkpt>
      <trkpt lat="48.43031" lon="6.72814">
        <ele>372.17</ele>
        <time>2018-10-18T13:50:53Z</time>
      </trkpt>
      <trkpt lat="48.43037" lon="6.72804">
        <ele>371.69</ele>
        <time>2018-10-18T13:51:01Z</time>
      </trkpt>
      <trkpt lat="48.43044" lon="6.72794">
        <ele>371.69</ele>
        <time>2018-10-18T13:51:09Z</time>
      </trkpt>
      <trkpt lat="48.43051" lon="6.72786">
        <ele>371.69</ele>
        <time>2018-10-18T13:51:17Z</time>
      </trkpt>
      <trkpt lat="48.43058" lon="6.72777">
        <ele>370.73</ele>
        <time>2018-10-18T13:51:26Z</time>
      </trkpt>
      <trkpt lat="48.43066" lon="6.72775">
        <ele>370.73</ele>
        <time>2018-10-18T13:51:35Z</time>
      </trkpt>
      <trkpt lat="48.43074" lon="6.72784">
        <ele>369.28</ele>
        <time>2018-10-18T13:51:44Z</time>
      </trkpt>
      <trkpt lat="48.43081" lon="6.72794">
        <ele>368.8</ele>
        <time>2018-10-18T13:51:53Z</time>
      </trkpt>
      <trkpt lat="48.43087" lon="6.72804">
        <ele>368.8</ele>
        <time>2018-10-18T13:52:01Z</time>
      </trkpt>
      <trkpt lat="48.43094" lon="6.72814">
        <ele>368.32</ele>
        <time>2018-10-18T13:52:09Z</time>
      </trkpt>
      <trkpt lat="48.43099" lon="6.72824">
        <ele>367.84</ele>
        <time>2018-10-18T13:52:21Z</time>
      </trkpt>
      <trkpt lat="48.43106" lon="6.7283">
        <ele>367.36</ele>
        <time>2018-10-18T13:53:12Z</time>
      </trkpt>
      <trkpt lat="48.43112" lon="6.72842">
        <ele>366.88</ele>
        <time>2018-10-18T13:53:20Z</time>
      </trkpt>
      <trkpt lat="48.43118" lon="6.72852">
        <ele>366.88</ele>
        <time>2018-10-18T13:53:28Z</time>
      </trkpt>
      <trkpt lat="48.43123" lon="6.72863">
        <ele>366.88</ele>
        <time>2018-10-18T13:53:36Z</time>
      </trkpt>
      <trkpt lat="48.4313" lon="6.72873">
        <ele>366.4</ele>
        <time>2018-10-18T13:53:44Z</time>
      </trkpt>
      <trkpt lat="48.43136" lon="6.72883">
        <ele>365.92</ele>
        <time>2018-10-18T13:53:52Z</time>
      </trkpt>
      <trkpt lat="48.43144" lon="6.72892">
        <ele>364.96</ele>
        <time>2018-10-18T13:54:00Z</time>
      </trkpt>
      <trkpt lat="48.43152" lon="6.72899">
        <ele>364.48</ele>
        <time>2018-10-18T13:54:08Z</time>
      </trkpt>
      <trkpt lat="48.43161" lon="6.72906">
        <ele>364</ele>
        <time>2018-10-18T13:54:16Z</time>
      </trkpt>
      <trkpt lat="48.4317" lon="6.72912">
        <ele>363.04</ele>
        <time>2018-10-18T13:54:24Z</time>
      </trkpt>
      <trkpt lat="48.43179" lon="6.72919">
        <ele>363.04</ele>
        <time>2018-10-18T13:54:32Z</time>
      </trkpt>
      <trkpt lat="48.43187" lon="6.72927">
        <ele>362.55</ele>
        <time>2018-10-18T13:54:40Z</time>
      </trkpt>
      <trkpt lat="48.43195" lon="6.72935">
        <ele>361.59</ele>
        <time>2018-10-18T13:54:48Z</time>
      </trkpt>
      <trkpt lat="48.43203" lon="6.72945">
        <ele>362.07</ele>
        <time>2018-10-18T13:54:56Z</time>
      </trkpt>
      <trkpt lat="48.4321" lon="6.72956">
        <ele>361.59</ele>
        <time>2018-10-18T13:55:04Z</time>
      </trkpt>
      <trkpt lat="48.43218" lon="6.72964">
        <ele>361.11</ele>
        <time>2018-10-18T13:55:11Z</time>
      </trkpt>
      <trkpt lat="48.43225" lon="6.72974">
        <ele>360.63</ele>
        <time>2018-10-18T13:55:19Z</time>
      </trkpt>
      <trkpt lat="48.43232" lon="6.72983">
        <ele>360.15</ele>
        <time>2018-10-18T13:55:27Z</time>
      </trkpt>
      <trkpt lat="48.43239" lon="6.72993">
        <ele>359.67</ele>
        <time>2018-10-18T13:55:34Z</time>
      </trkpt>
      <trkpt lat="48.43246" lon="6.73">
        <ele>359.67</ele>
        <time>2018-10-18T13:55:41Z</time>
      </trkpt>
      <trkpt lat="48.43254" lon="6.73008">
        <ele>359.19</ele>
        <time>2018-10-18T13:55:48Z</time>
      </trkpt>
      <trkpt lat="48.43262" lon="6.73016">
        <ele>358.71</ele>
        <time>2018-10-18T13:55:56Z</time>
      </trkpt>
      <trkpt lat="48.43271" lon="6.73022">
        <ele>358.23</ele>
        <time>2018-10-18T13:56:04Z</time>
      </trkpt>
      <trkpt lat="48.4328" lon="6.73028">
        <ele>357.75</ele>
        <time>2018-10-18T13:56:12Z</time>
      </trkpt>
      <trkpt lat="48.43289" lon="6.73033">
        <ele>356.79</ele>
        <time>2018-10-18T13:56:20Z</time>
      </trkpt>
      <trkpt lat="48.433" lon="6.73037">
        <ele>355.83</ele>
        <time>2018-10-18T13:56:28Z</time>
      </trkpt>
      <trkpt lat="48.43309" lon="6.73043">
        <ele>355.34</ele>
        <time>2018-10-18T13:56:36Z</time>
      </trkpt>
      <trkpt lat="48.43318" lon="6.73047">
        <ele>354.38</ele>
        <time>2018-10-18T13:56:43Z</time>
      </trkpt>
      <trkpt lat="48.43327" lon="6.73053">
        <ele>354.38</ele>
        <time>2018-10-18T13:56:51Z</time>
      </trkpt>
      <trkpt lat="48.43336" lon="6.73059">
        <ele>353.9</ele>
        <time>2018-10-18T13:56:58Z</time>
      </trkpt>
      <trkpt lat="48.43345" lon="6.73066">
        <ele>353.9</ele>
        <time>2018-10-18T13:57:06Z</time>
      </trkpt>
      <trkpt lat="48.43353" lon="6.73072">
        <ele>353.42</ele>
        <time>2018-10-18T13:57:13Z</time>
      </trkpt>
      <trkpt lat="48.43362" lon="6.7308">
        <ele>352.94</ele>
        <time>2018-10-18T13:57:21Z</time>
      </trkpt>
      <trkpt lat="48.4337" lon="6.73087">
        <ele>352.46</ele>
        <time>2018-10-18T13:57:28Z</time>
      </trkpt>
      <trkpt lat="48.43378" lon="6.73094">
        <ele>351.98</ele>
        <time>2018-10-18T13:57:35Z</time>
      </trkpt>
      <trkpt lat="48.43386" lon="6.73102">
        <ele>351.5</ele>
        <time>2018-10-18T13:57:42Z</time>
      </trkpt>
      <trkpt lat="48.43394" lon="6.73111">
        <ele>351.02</ele>
        <time>2018-10-18T13:57:50Z</time>
      </trkpt>
      <trkpt lat="48.43401" lon="6.73119">
        <ele>351.02</ele>
        <time>2018-10-18T13:57:57Z</time>
      </trkpt>
      <trkpt lat="48.43409" lon="6.73128">
        <ele>350.54</ele>
        <time>2018-10-18T13:58:05Z</time>
      </trkpt>
      <trkpt lat="48.43417" lon="6.73136">
        <ele>350.54</ele>
        <time>2018-10-18T13:58:12Z</time>
      </trkpt>
      <trkpt lat="48.43424" lon="6.73144">
        <ele>350.54</ele>
        <time>2018-10-18T13:58:19Z</time>
      </trkpt>
      <trkpt lat="48.43432" lon="6.73153">
        <ele>350.06</ele>
        <time>2018-10-18T13:58:26Z</time>
      </trkpt>
      <trkpt lat="48.43439" lon="6.73161">
        <ele>350.06</ele>
        <time>2018-10-18T13:58:33Z</time>
      </trkpt>
      <trkpt lat="48.43447" lon="6.73169">
        <ele>350.06</ele>
        <time>2018-10-18T13:58:40Z</time>
      </trkpt>
      <trkpt lat="48.43455" lon="6.73178">
        <ele>349.58</ele>
        <time>2018-10-18T13:58:48Z</time>
      </trkpt>
      <trkpt lat="48.43463" lon="6.73185">
        <ele>349.58</ele>
        <time>2018-10-18T13:58:55Z</time>
      </trkpt>
      <trkpt lat="48.43471" lon="6.73193">
        <ele>349.58</ele>
        <time>2018-10-18T13:59:03Z</time>
      </trkpt>
      <trkpt lat="48.4348" lon="6.732">
        <ele>349.1</ele>
        <time>2018-10-18T13:59:10Z</time>
      </trkpt>
      <trkpt lat="48.43487" lon="6.73207">
        <ele>349.58</ele>
        <time>2018-10-18T13:59:17Z</time>
      </trkpt>
      <trkpt lat="48.43495" lon="6.73214">
        <ele>349.1</ele>
        <time>2018-10-18T13:59:24Z</time>
      </trkpt>
      <trkpt lat="48.43502" lon="6.73221">
        <ele>348.62</ele>
        <time>2018-10-18T13:59:31Z</time>
      </trkpt>
      <trkpt lat="48.4351" lon="6.73229">
        <ele>348.13</ele>
        <time>2018-10-18T13:59:38Z</time>
      </trkpt>
      <trkpt lat="48.43518" lon="6.73238">
        <ele>348.13</ele>
        <time>2018-10-18T13:59:46Z</time>
      </trkpt>
      <trkpt lat="48.43526" lon="6.73244">
        <ele>347.17</ele>
        <time>2018-10-18T13:59:53Z</time>
      </trkpt>
      <trkpt lat="48.43535" lon="6.73253">
        <ele>347.17</ele>
        <time>2018-10-18T14:00:01Z</time>
      </trkpt>
      <trkpt lat="48.43542" lon="6.7326">
        <ele>347.17</ele>
        <time>2018-10-18T14:00:08Z</time>
      </trkpt>
      <trkpt lat="48.4355" lon="6.73267">
        <ele>346.21</ele>
        <time>2018-10-18T14:00:15Z</time>
      </trkpt>
      <trkpt lat="48.43557" lon="6.73275">
        <ele>346.21</ele>
        <time>2018-10-18T14:00:22Z</time>
      </trkpt>
      <trkpt lat="48.43566" lon="6.73281">
        <ele>346.21</ele>
        <time>2018-10-18T14:00:29Z</time>
      </trkpt>
      <trkpt lat="48.43574" lon="6.73288">
        <ele>345.25</ele>
        <time>2018-10-18T14:00:37Z</time>
      </trkpt>
      <trkpt lat="48.43582" lon="6.73295">
        <ele>344.77</ele>
        <time>2018-10-18T14:00:44Z</time>
      </trkpt>
      <trkpt lat="48.4359" lon="6.73303">
        <ele>344.29</ele>
        <time>2018-10-18T14:00:51Z</time>
      </trkpt>
      <trkpt lat="48.43598" lon="6.73312">
        <ele>344.29</ele>
        <time>2018-10-18T14:00:59Z</time>
      </trkpt>
      <trkpt lat="48.43606" lon="6.73319">
        <ele>343.33</ele>
        <time>2018-10-18T14:01:06Z</time>
      </trkpt>
      <trkpt lat="48.43613" lon="6.73328">
        <ele>343.33</ele>
        <time>2018-10-18T14:01:13Z</time>
      </trkpt>
      <trkpt lat="48.43621" lon="6.73338">
        <ele>342.37</ele>
        <time>2018-10-18T14:01:21Z</time>
      </trkpt>
      <trkpt lat="48.43628" lon="6.73346">
        <ele>342.37</ele>
        <time>2018-10-18T14:01:28Z</time>
      </trkpt>
      <trkpt lat="48.43635" lon="6.73354">
        <ele>341.89</ele>
        <time>2018-10-18T14:01:35Z</time>
      </trkpt>
      <trkpt lat="48.43641" lon="6.73364">
        <ele>341.41</ele>
        <time>2018-10-18T14:01:42Z</time>
      </trkpt>
      <trkpt lat="48.43647" lon="6.73373">
        <ele>341.41</ele>
        <time>2018-10-18T14:01:49Z</time>
      </trkpt>
      <trkpt lat="48.43652" lon="6.73386">
        <ele>340.92</ele>
        <time>2018-10-18T14:01:57Z</time>
      </trkpt>
      <trkpt lat="48.43656" lon="6.73399">
        <ele>340.92</ele>
        <time>2018-10-18T14:02:05Z</time>
      </trkpt>
      <trkpt lat="48.43656" lon="6.73413">
        <ele>339.96</ele>
        <time>2018-10-18T14:02:13Z</time>
      </trkpt>
      <trkpt lat="48.43652" lon="6.73428">
        <ele>339.96</ele>
        <time>2018-10-18T14:02:22Z</time>
      </trkpt>
      <trkpt lat="48.43648" lon="6.73441">
        <ele>339.48</ele>
        <time>2018-10-18T14:02:30Z</time>
      </trkpt>
      <trkpt lat="48.43642" lon="6.73454">
        <ele>339</ele>
        <time>2018-10-18T14:02:38Z</time>
      </trkpt>
      <trkpt lat="48.43636" lon="6.73467">
        <ele>339.48</ele>
        <time>2018-10-18T14:02:46Z</time>
      </trkpt>
      <trkpt lat="48.43633" lon="6.73481">
        <ele>339</ele>
        <time>2018-10-18T14:02:54Z</time>
      </trkpt>
      <trkpt lat="48.43629" lon="6.73495">
        <ele>338.52</ele>
        <time>2018-10-18T14:03:02Z</time>
      </trkpt>
      <trkpt lat="48.43626" lon="6.73508">
        <ele>338.52</ele>
        <time>2018-10-18T14:03:10Z</time>
      </trkpt>
      <trkpt lat="48.43622" lon="6.73521">
        <ele>338.04</ele>
        <time>2018-10-18T14:03:18Z</time>
      </trkpt>
      <trkpt lat="48.43617" lon="6.73533">
        <ele>337.08</ele>
        <time>2018-10-18T14:03:26Z</time>
      </trkpt>
      <trkpt lat="48.43615" lon="6.73548">
        <ele>335.64</ele>
        <time>2018-10-18T14:03:35Z</time>
      </trkpt>
      <trkpt lat="48.43618" lon="6.73561">
        <ele>334.68</ele>
        <time>2018-10-18T14:03:44Z</time>
      </trkpt>
      <trkpt lat="48.43624" lon="6.73573">
        <ele>333.23</ele>
        <time>2018-10-18T14:03:54Z</time>
      </trkpt>
      <trkpt lat="48.43629" lon="6.73588">
        <ele>331.79</ele>
        <time>2018-10-18T14:04:05Z</time>
      </trkpt>
      <trkpt lat="48.43635" lon="6.73605">
        <ele>330.35</ele>
        <time>2018-10-18T14:04:18Z</time>
      </trkpt>
      <trkpt lat="48.43643" lon="6.73621">
        <ele>328.91</ele>
        <time>2018-10-18T14:04:28Z</time>
      </trkpt>
      <trkpt lat="48.43649" lon="6.73637">
        <ele>327.47</ele>
        <time>2018-10-18T14:04:38Z</time>
      </trkpt>
      <trkpt lat="48.43657" lon="6.73654">
        <ele>326.02</ele>
        <time>2018-10-18T14:04:49Z</time>
      </trkpt>
      <trkpt lat="48.43665" lon="6.73673">
        <ele>325.06</ele>
        <time>2018-10-18T14:04:58Z</time>
      </trkpt>
      <trkpt lat="48.43666" lon="6.7369">
        <ele>325.06</ele>
        <time>2018-10-18T14:05:07Z</time>
      </trkpt>
      <trkpt lat="48.43672" lon="6.73705">
        <ele>325.06</ele>
        <time>2018-10-18T14:05:17Z</time>
      </trkpt>
      <trkpt lat="48.43675" lon="6.73719">
        <ele>324.58</ele>
        <time>2018-10-18T14:05:26Z</time>
      </trkpt>
      <trkpt lat="48.43678" lon="6.73731">
        <ele>324.58</ele>
        <time>2018-10-18T14:05:34Z</time>
      </trkpt>
      <trkpt lat="48.43684" lon="6.73743">
        <ele>324.1</ele>
        <time>2018-10-18T14:05:43Z</time>
      </trkpt>
      <trkpt lat="48.43691" lon="6.73755">
        <ele>323.62</ele>
        <time>2018-10-18T14:05:52Z</time>
      </trkpt>
      <trkpt lat="48.437" lon="6.73753">
        <ele>323.62</ele>
        <time>2018-10-18T14:06:03Z</time>
      </trkpt>
      <trkpt lat="48.43711" lon="6.73746">
        <ele>322.66</ele>
        <time>2018-10-18T14:06:14Z</time>
      </trkpt>
      <trkpt lat="48.43719" lon="6.73739">
        <ele>321.7</ele>
        <time>2018-10-18T14:06:26Z</time>
      </trkpt>
      <trkpt lat="48.43729" lon="6.73734">
        <ele>321.22</ele>
        <time>2018-10-18T14:06:47Z</time>
      </trkpt>
      <trkpt lat="48.43738" lon="6.7373">
        <ele>320.74</ele>
        <time>2018-10-18T14:08:15Z</time>
      </trkpt>
      <trkpt lat="48.43747" lon="6.73725">
        <ele>320.26</ele>
        <time>2018-10-18T14:09:13Z</time>
      </trkpt>
      <trkpt lat="48.43756" lon="6.73719">
        <ele>319.78</ele>
        <time>2018-10-18T14:09:24Z</time>
      </trkpt>
      <trkpt lat="48.43766" lon="6.73711">
        <ele>318.81</ele>
        <time>2018-10-18T14:09:35Z</time>
      </trkpt>
      <trkpt lat="48.43776" lon="6.73707">
        <ele>318.33</ele>
        <time>2018-10-18T14:09:44Z</time>
      </trkpt>
      <trkpt lat="48.43785" lon="6.73702">
        <ele>318.33</ele>
        <time>2018-10-18T14:09:53Z</time>
      </trkpt>
      <trkpt lat="48.43795" lon="6.73697">
        <ele>317.85</ele>
        <time>2018-10-18T14:10:03Z</time>
      </trkpt>
      <trkpt lat="48.43804" lon="6.73691">
        <ele>316.89</ele>
        <time>2018-10-18T14:10:18Z</time>
      </trkpt>
      <trkpt lat="48.43814" lon="6.73684">
        <ele>316.89</ele>
        <time>2018-10-18T14:10:36Z</time>
      </trkpt>
      <trkpt lat="48.43823" lon="6.7368">
        <ele>316.89</ele>
        <time>2018-10-18T14:10:45Z</time>
      </trkpt>
      <trkpt lat="48.43831" lon="6.73677">
        <ele>315.93</ele>
        <time>2018-10-18T14:10:53Z</time>
      </trkpt>
      <trkpt lat="48.4384" lon="6.73673">
        <ele>315.45</ele>
        <time>2018-10-18T14:11:02Z</time>
      </trkpt>
      <trkpt lat="48.4385" lon="6.73667">
        <ele>314.97</ele>
        <time>2018-10-18T14:11:12Z</time>
      </trkpt>
      <trkpt lat="48.43859" lon="6.73663">
        <ele>314.01</ele>
        <time>2018-10-18T14:11:20Z</time>
      </trkpt>
      <trkpt lat="48.4387" lon="6.73657">
        <ele>313.53</ele>
        <time>2018-10-18T14:11:29Z</time>
      </trkpt>
      <trkpt lat="48.4388" lon="6.73653">
        <ele>312.57</ele>
        <time>2018-10-18T14:11:40Z</time>
      </trkpt>
      <trkpt lat="48.43889" lon="6.73649">
        <ele>311.12</ele>
        <time>2018-10-18T14:11:49Z</time>
      </trkpt>
      <trkpt lat="48.43897" lon="6.73638">
        <ele>310.16</ele>
        <time>2018-10-18T14:11:59Z</time>
      </trkpt>
      <trkpt lat="48.43906" lon="6.73632">
        <ele>309.68</ele>
        <time>2018-10-18T14:12:09Z</time>
      </trkpt>
      <trkpt lat="48.43915" lon="6.7364">
        <ele>309.68</ele>
        <time>2018-10-18T14:12:18Z</time>
      </trkpt>
      <trkpt lat="48.43922" lon="6.73644">
        <ele>309.2</ele>
        <time>2018-10-18T14:13:11Z</time>
      </trkpt>
      <trkpt lat="48.43928" lon="6.73658">
        <ele>308.72</ele>
        <time>2018-10-18T14:13:22Z</time>
      </trkpt>
      <trkpt lat="48.43936" lon="6.73667">
        <ele>308.24</ele>
        <time>2018-10-18T14:13:37Z</time>
      </trkpt>
      <trkpt lat="48.43945" lon="6.73683">
        <ele>308.24</ele>
        <time>2018-10-18T14:13:50Z</time>
      </trkpt>
      <trkpt lat="48.43954" lon="6.7369">
        <ele>309.2</ele>
        <time>2018-10-18T14:14:00Z</time>
      </trkpt>
      <trkpt lat="48.43961" lon="6.73679">
        <ele>310.64</ele>
        <time>2018-10-18T14:14:11Z</time>
      </trkpt>
      <trkpt lat="48.4397" lon="6.7367">
        <ele>311.12</ele>
        <time>2018-10-18T14:14:22Z</time>
      </trkpt>
      <trkpt lat="48.43978" lon="6.73662">
        <ele>310.16</ele>
        <time>2018-10-18T14:14:41Z</time>
      </trkpt>
      <trkpt lat="48.43985" lon="6.73654">
        <ele>310.16</ele>
        <time>2018-10-18T14:14:50Z</time>
      </trkpt>
      <trkpt lat="48.43992" lon="6.73642">
        <ele>310.64</ele>
        <time>2018-10-18T14:15:00Z</time>
      </trkpt>
      <trkpt lat="48.44" lon="6.73634">
        <ele>310.64</ele>
        <time>2018-10-18T14:15:09Z</time>
      </trkpt>
      <trkpt lat="48.44008" lon="6.73626">
        <ele>310.64</ele>
        <time>2018-10-18T14:15:18Z</time>
      </trkpt>
      <trkpt lat="48.44016" lon="6.7362">
        <ele>310.64</ele>
        <time>2018-10-18T14:15:27Z</time>
      </trkpt>
      <trkpt lat="48.44029" lon="6.73612">
        <ele>309.68</ele>
        <time>2018-10-18T14:15:41Z</time>
      </trkpt>
      <trkpt lat="48.44039" lon="6.73615">
        <ele>309.68</ele>
        <time>2018-10-18T14:15:49Z</time>
      </trkpt>
      <trkpt lat="48.44047" lon="6.73623">
        <ele>310.16</ele>
        <time>2018-10-18T14:15:57Z</time>
      </trkpt>
      <trkpt lat="48.44055" lon="6.73633">
        <ele>311.12</ele>
        <time>2018-10-18T14:16:06Z</time>
      </trkpt>
      <trkpt lat="48.44061" lon="6.73639">
        <ele>313.53</ele>
        <time>2018-10-18T14:16:17Z</time>
      </trkpt>
      <trkpt lat="48.44068" lon="6.73649">
        <ele>315.45</ele>
        <time>2018-10-18T14:16:29Z</time>
      </trkpt>
      <trkpt lat="48.44078" lon="6.73656">
        <ele>316.41</ele>
        <time>2018-10-18T14:16:39Z</time>
      </trkpt>
      <trkpt lat="48.44086" lon="6.73662">
        <ele>316.41</ele>
        <time>2018-10-18T14:17:08Z</time>
      </trkpt>
      <trkpt lat="48.44095" lon="6.73668">
        <ele>316.89</ele>
        <time>2018-10-18T14:17:17Z</time>
      </trkpt>
      <trkpt lat="48.44104" lon="6.73672">
        <ele>317.37</ele>
        <time>2018-10-18T14:17:30Z</time>
      </trkpt>
      <trkpt lat="48.44112" lon="6.73674">
        <ele>318.33</ele>
        <time>2018-10-18T14:17:41Z</time>
      </trkpt>
      <trkpt lat="48.44122" lon="6.73674">
        <ele>319.3</ele>
        <time>2018-10-18T14:17:51Z</time>
      </trkpt>
      <trkpt lat="48.44131" lon="6.73673">
        <ele>320.26</ele>
        <time>2018-10-18T14:18:01Z</time>
      </trkpt>
      <trkpt lat="48.44137" lon="6.73661">
        <ele>322.66</ele>
        <time>2018-10-18T14:18:13Z</time>
      </trkpt>
      <trkpt lat="48.4414" lon="6.73647">
        <ele>324.1</ele>
        <time>2018-10-18T14:18:25Z</time>
      </trkpt>
      <trkpt lat="48.44143" lon="6.73634">
        <ele>325.54</ele>
        <time>2018-10-18T14:18:37Z</time>
      </trkpt>
      <trkpt lat="48.44151" lon="6.73623">
        <ele>326.99</ele>
        <time>2018-10-18T14:18:49Z</time>
      </trkpt>
      <trkpt lat="48.44158" lon="6.73617">
        <ele>327.47</ele>
        <time>2018-10-18T14:19:00Z</time>
      </trkpt>
      <trkpt lat="48.44166" lon="6.73611">
        <ele>327.95</ele>
        <time>2018-10-18T14:19:14Z</time>
      </trkpt>
      <trkpt lat="48.44173" lon="6.73604">
        <ele>327.47</ele>
        <time>2018-10-18T14:19:23Z</time>
      </trkpt>
      <trkpt lat="48.44176" lon="6.73592">
        <ele>327.47</ele>
        <time>2018-10-18T14:19:31Z</time>
      </trkpt>
      <trkpt lat="48.44178" lon="6.73583">
        <ele>326.99</ele>
        <time>2018-10-18T14:19:51Z</time>
      </trkpt>
      <trkpt lat="48.44182" lon="6.73572">
        <ele>327.47</ele>
        <time>2018-10-18T14:22:59Z</time>
      </trkpt>
      <trkpt lat="48.44184" lon="6.7356">
        <ele>327.47</ele>
        <time>2018-10-18T14:23:10Z</time>
      </trkpt>
      <trkpt lat="48.44182" lon="6.73547">
        <ele>327.47</ele>
        <time>2018-10-18T14:23:20Z</time>
      </trkpt>
      <trkpt lat="48.4418" lon="6.73533">
        <ele>327.47</ele>
        <time>2018-10-18T14:23:44Z</time>
      </trkpt>
      <trkpt lat="48.44185" lon="6.73525">
        <ele>326.99</ele>
        <time>2018-10-18T14:24:04Z</time>
      </trkpt>
      <trkpt lat="48.44189" lon="6.7352">
        <ele>328.43</ele>
        <time>2018-10-18T14:24:41Z</time>
      </trkpt>
      <trkpt lat="48.44194" lon="6.73509">
        <ele>327.95</ele>
        <time>2018-10-18T14:25:15Z</time>
      </trkpt>
      <trkpt lat="48.44189" lon="6.73512">
        <ele>327.95</ele>
        <time>2018-10-18T14:25:44Z</time>
      </trkpt>
      <trkpt lat="48.44188" lon="6.735">
        <ele>327.95</ele>
        <time>2018-10-18T14:25:52Z</time>
      </trkpt>
      <trkpt lat="48.44187" lon="6.73486">
        <ele>327.95</ele>
        <time>2018-10-18T14:26:00Z</time>
      </trkpt>
      <trkpt lat="48.4419" lon="6.73481">
        <ele>327.47</ele>
        <time>2018-10-18T14:26:14Z</time>
      </trkpt>
      <trkpt lat="48.44198" lon="6.73485">
        <ele>325.06</ele>
        <time>2018-10-18T14:26:33Z</time>
      </trkpt>
      <trkpt lat="48.44205" lon="6.73475">
        <ele>322.18</ele>
        <time>2018-10-18T14:26:51Z</time>
      </trkpt>
      <trkpt lat="48.44206" lon="6.73474">
        <ele>321.22</ele>
        <time>2018-10-18T14:27:19Z</time>
      </trkpt>
      <trkpt lat="48.44207" lon="6.73472">
        <ele>321.22</ele>
        <time>2018-10-18T14:27:54Z</time>
      </trkpt>
      <trkpt lat="48.44197" lon="6.73476">
        <ele>322.18</ele>
        <time>2018-10-18T14:42:11Z</time>
      </trkpt>
      <trkpt lat="48.44195" lon="6.73481">
        <ele>325.54</ele>
        <time>2018-10-18T14:42:33Z</time>
      </trkpt>
      <trkpt lat="48.44189" lon="6.73475">
        <ele>327.95</ele>
        <time>2018-10-18T14:42:54Z</time>
      </trkpt>
      <trkpt lat="48.44185" lon="6.73465">
        <ele>327.95</ele>
        <time>2018-10-18T14:43:10Z</time>
      </trkpt>
      <trkpt lat="48.44184" lon="6.73451">
        <ele>326.99</ele>
        <time>2018-10-18T14:43:22Z</time>
      </trkpt>
      <trkpt lat="48.44186" lon="6.73435">
        <ele>325.54</ele>
        <time>2018-10-18T14:43:35Z</time>
      </trkpt>
      <trkpt lat="48.44188" lon="6.73421">
        <ele>324.1</ele>
        <time>2018-10-18T14:43:49Z</time>
      </trkpt>
      <trkpt lat="48.44194" lon="6.73416">
        <ele>322.66</ele>
        <time>2018-10-18T14:44:01Z</time>
      </trkpt>
      <trkpt lat="48.44203" lon="6.73413">
        <ele>323.14</ele>
        <time>2018-10-18T14:44:11Z</time>
      </trkpt>
      <trkpt lat="48.44213" lon="6.73408">
        <ele>321.7</ele>
        <time>2018-10-18T14:44:20Z</time>
      </trkpt>
      <trkpt lat="48.44222" lon="6.73407">
        <ele>321.7</ele>
        <time>2018-10-18T14:44:29Z</time>
      </trkpt>
      <trkpt lat="48.44232" lon="6.73413">
        <ele>321.22</ele>
        <time>2018-10-18T14:44:40Z</time>
      </trkpt>
      <trkpt lat="48.44242" lon="6.73418">
        <ele>320.74</ele>
        <time>2018-10-18T14:44:50Z</time>
      </trkpt>
      <trkpt lat="48.44251" lon="6.73419">
        <ele>319.78</ele>
        <time>2018-10-18T14:45:01Z</time>
      </trkpt>
      <trkpt lat="48.44261" lon="6.73421">
        <ele>318.33</ele>
        <time>2018-10-18T14:45:12Z</time>
      </trkpt>
      <trkpt lat="48.44271" lon="6.73422">
        <ele>318.33</ele>
        <time>2018-10-18T14:45:22Z</time>
      </trkpt>
      <trkpt lat="48.44281" lon="6.73422">
        <ele>317.85</ele>
        <time>2018-10-18T14:45:32Z</time>
      </trkpt>
      <trkpt lat="48.4429" lon="6.73423">
        <ele>317.37</ele>
        <time>2018-10-18T14:45:41Z</time>
      </trkpt>
      <trkpt lat="48.443" lon="6.73423">
        <ele>317.37</ele>
        <time>2018-10-18T14:45:53Z</time>
      </trkpt>
      <trkpt lat="48.44309" lon="6.73422">
        <ele>317.85</ele>
        <time>2018-10-18T14:46:05Z</time>
      </trkpt>
      <trkpt lat="48.44318" lon="6.73423">
        <ele>317.37</ele>
        <time>2018-10-18T14:46:23Z</time>
      </trkpt>
      <trkpt lat="48.44328" lon="6.73424">
        <ele>317.37</ele>
        <time>2018-10-18T14:46:33Z</time>
      </trkpt>
      <trkpt lat="48.44338" lon="6.73426">
        <ele>316.41</ele>
        <time>2018-10-18T14:46:46Z</time>
      </trkpt>
      <trkpt lat="48.44347" lon="6.73424">
        <ele>315.93</ele>
        <time>2018-10-18T14:47:08Z</time>
      </trkpt>
      <trkpt lat="48.44357" lon="6.73424">
        <ele>314.49</ele>
        <time>2018-10-18T14:47:21Z</time>
      </trkpt>
      <trkpt lat="48.44365" lon="6.73424">
        <ele>312.57</ele>
        <time>2018-10-18T14:47:32Z</time>
      </trkpt>
      <trkpt lat="48.44374" lon="6.73424">
        <ele>312.57</ele>
        <time>2018-10-18T14:47:42Z</time>
      </trkpt>
      <trkpt lat="48.44383" lon="6.73425">
        <ele>311.12</ele>
        <time>2018-10-18T14:47:52Z</time>
      </trkpt>
      <trkpt lat="48.44392" lon="6.73428">
        <ele>310.16</ele>
        <time>2018-10-18T14:48:02Z</time>
      </trkpt>
      <trkpt lat="48.44401" lon="6.73426">
        <ele>308.24</ele>
        <time>2018-10-18T14:48:12Z</time>
      </trkpt>
      <trkpt lat="48.44411" lon="6.73424">
        <ele>307.28</ele>
        <time>2018-10-18T14:48:22Z</time>
      </trkpt>
      <trkpt lat="48.4442" lon="6.73424">
        <ele>306.32</ele>
        <time>2018-10-18T14:48:31Z</time>
      </trkpt>
      <trkpt lat="48.4443" lon="6.73423">
        <ele>306.32</ele>
        <time>2018-10-18T14:48:43Z</time>
      </trkpt>
      <trkpt lat="48.44439" lon="6.73422">
        <ele>305.36</ele>
        <time>2018-10-18T14:48:55Z</time>
      </trkpt>
      <trkpt lat="48.44447" lon="6.73421">
        <ele>304.88</ele>
        <time>2018-10-18T14:49:08Z</time>
      </trkpt>
      <trkpt lat="48.44456" lon="6.7342">
        <ele>304.39</ele>
        <time>2018-10-18T14:49:20Z</time>
      </trkpt>
      <trkpt lat="48.44467" lon="6.73421">
        <ele>303.91</ele>
        <time>2018-10-18T14:49:32Z</time>
      </trkpt>
      <trkpt lat="48.44476" lon="6.7342">
        <ele>303.43</ele>
        <time>2018-10-18T14:49:42Z</time>
      </trkpt>
      <trkpt lat="48.44484" lon="6.73421">
        <ele>303.91</ele>
        <time>2018-10-18T14:50:20Z</time>
      </trkpt>
      <trkpt lat="48.44492" lon="6.73424">
        <ele>303.91</ele>
        <time>2018-10-18T14:50:30Z</time>
      </trkpt>
      <trkpt lat="48.44501" lon="6.73425">
        <ele>303.91</ele>
        <time>2018-10-18T14:50:40Z</time>
      </trkpt>
      <trkpt lat="48.44512" lon="6.73426">
        <ele>303.43</ele>
        <time>2018-10-18T14:50:51Z</time>
      </trkpt>
      <trkpt lat="48.44523" lon="6.7343">
        <ele>303.43</ele>
        <time>2018-10-18T14:51:01Z</time>
      </trkpt>
      <trkpt lat="48.44533" lon="6.7343">
        <ele>302.95</ele>
        <time>2018-10-18T14:51:11Z</time>
      </trkpt>
      <trkpt lat="48.44543" lon="6.73432">
        <ele>301.99</ele>
        <time>2018-10-18T14:51:22Z</time>
      </trkpt>
      <trkpt lat="48.44552" lon="6.7343">
        <ele>300.55</ele>
        <time>2018-10-18T14:51:35Z</time>
      </trkpt>
      <trkpt lat="48.44562" lon="6.73426">
        <ele>297.67</ele>
        <time>2018-10-18T14:51:48Z</time>
      </trkpt>
      <trkpt lat="48.44571" lon="6.73427">
        <ele>297.67</ele>
        <time>2018-10-18T14:51:58Z</time>
      </trkpt>
      <trkpt lat="48.44581" lon="6.73432">
        <ele>299.11</ele>
        <time>2018-10-18T14:52:08Z</time>
      </trkpt>
      <trkpt lat="48.44582" lon="6.73446">
        <ele>300.55</ele>
        <time>2018-10-18T14:52:20Z</time>
      </trkpt>
      <trkpt lat="48.4458" lon="6.7346">
        <ele>302.95</ele>
        <time>2018-10-18T14:52:34Z</time>
      </trkpt>
      <trkpt lat="48.44587" lon="6.73458">
        <ele>302.47</ele>
        <time>2018-10-18T14:53:19Z</time>
      </trkpt>
      <trkpt lat="48.44582" lon="6.73462">
        <ele>303.43</ele>
        <time>2018-10-18T14:53:58Z</time>
      </trkpt>
      <trkpt lat="48.44578" lon="6.73477">
        <ele>303.91</ele>
        <time>2018-10-18T14:54:28Z</time>
      </trkpt>
      <trkpt lat="48.44577" lon="6.7348">
        <ele>304.39</ele>
        <time>2018-10-18T14:56:08Z</time>
      </trkpt>
      <trkpt lat="48.44576" lon="6.73483">
        <ele>304.39</ele>
        <time>2018-10-18T14:56:48Z</time>
      </trkpt>
      <trkpt lat="48.44569" lon="6.73495">
        <ele>305.84</ele>
        <time>2018-10-18T14:57:00Z</time>
      </trkpt>
      <trkpt lat="48.44564" lon="6.73509">
        <ele>307.28</ele>
        <time>2018-10-18T14:57:13Z</time>
      </trkpt>
      <trkpt lat="48.44571" lon="6.73518">
        <ele>305.84</ele>
        <time>2018-10-18T14:57:34Z</time>
      </trkpt>
      <trkpt lat="48.44579" lon="6.73521">
        <ele>304.88</ele>
        <time>2018-10-18T14:57:45Z</time>
      </trkpt>
      <trkpt lat="48.44589" lon="6.73522">
        <ele>303.43</ele>
        <time>2018-10-18T14:58:01Z</time>
      </trkpt>
      <trkpt lat="48.44598" lon="6.73526">
        <ele>302.47</ele>
        <time>2018-10-18T14:58:15Z</time>
      </trkpt>
      <trkpt lat="48.44607" lon="6.73525">
        <ele>301.51</ele>
        <time>2018-10-18T14:58:26Z</time>
      </trkpt>
      <trkpt lat="48.44619" lon="6.73525">
        <ele>301.03</ele>
        <time>2018-10-18T14:58:42Z</time>
      </trkpt>
      <trkpt lat="48.44628" lon="6.73529">
        <ele>300.07</ele>
        <time>2018-10-18T14:58:51Z</time>
      </trkpt>
      <trkpt lat="48.4463" lon="6.73545">
        <ele>299.11</ele>
        <time>2018-10-18T14:59:07Z</time>
      </trkpt>
      <trkpt lat="48.44628" lon="6.73556">
        <ele>297.18</ele>
        <time>2018-10-18T14:59:27Z</time>
      </trkpt>
      <trkpt lat="48.44622" lon="6.73565">
        <ele>293.34</ele>
        <time>2018-10-18T14:59:49Z</time>
      </trkpt>
      <trkpt lat="48.44608" lon="6.73576">
        <ele>290.46</ele>
        <time>2018-10-18T15:00:07Z</time>
      </trkpt>
      <trkpt lat="48.44599" lon="6.73591">
        <ele>285.17</ele>
        <time>2018-10-18T15:00:39Z</time>
      </trkpt>
      <trkpt lat="48.44589" lon="6.73598">
        <ele>284.69</ele>
        <time>2018-10-18T15:01:06Z</time>
      </trkpt>
      <trkpt lat="48.44579" lon="6.73601">
        <ele>285.17</ele>
        <time>2018-10-18T15:01:16Z</time>
      </trkpt>
      <trkpt lat="48.44568" lon="6.73609">
        <ele>284.21</ele>
        <time>2018-10-18T15:01:30Z</time>
      </trkpt>
      <trkpt lat="48.4456" lon="6.73615">
        <ele>283.73</ele>
        <time>2018-10-18T15:01:40Z</time>
      </trkpt>
      <trkpt lat="48.4455" lon="6.73621">
        <ele>282.77</ele>
        <time>2018-10-18T15:01:52Z</time>
      </trkpt>
      <trkpt lat="48.44541" lon="6.73631">
        <ele>281.8</ele>
        <time>2018-10-18T15:02:04Z</time>
      </trkpt>
      <trkpt lat="48.44531" lon="6.73639">
        <ele>280.84</ele>
        <time>2018-10-18T15:02:16Z</time>
      </trkpt>
      <trkpt lat="48.4452" lon="6.73645">
        <ele>280.36</ele>
        <time>2018-10-18T15:02:27Z</time>
      </trkpt>
      <trkpt lat="48.44508" lon="6.73653">
        <ele>279.88</ele>
        <time>2018-10-18T15:02:37Z</time>
      </trkpt>
      <trkpt lat="48.445" lon="6.73658">
        <ele>279.4</ele>
        <time>2018-10-18T15:02:45Z</time>
      </trkpt>
      <trkpt lat="48.44491" lon="6.73663">
        <ele>279.4</ele>
        <time>2018-10-18T15:02:54Z</time>
      </trkpt>
      <trkpt lat="48.44481" lon="6.73668">
        <ele>278.92</ele>
        <time>2018-10-18T15:03:03Z</time>
      </trkpt>
      <trkpt lat="48.44472" lon="6.73675">
        <ele>278.92</ele>
        <time>2018-10-18T15:03:12Z</time>
      </trkpt>
      <trkpt lat="48.44463" lon="6.73678">
        <ele>278.92</ele>
        <time>2018-10-18T15:03:25Z</time>
      </trkpt>
      <trkpt lat="48.44451" lon="6.73684">
        <ele>278.92</ele>
        <time>2018-10-18T15:03:37Z</time>
      </trkpt>
      <trkpt lat="48.4444" lon="6.73689">
        <ele>278.44</ele>
        <time>2018-10-18T15:03:49Z</time>
      </trkpt>
      <trkpt lat="48.44425" lon="6.7369">
        <ele>278.92</ele>
        <time>2018-10-18T15:04:02Z</time>
      </trkpt>
      <trkpt lat="48.44411" lon="6.73698">
        <ele>279.4</ele>
        <time>2018-10-18T15:04:13Z</time>
      </trkpt>
      <trkpt lat="48.44403" lon="6.73704">
        <ele>279.4</ele>
        <time>2018-10-18T15:04:24Z</time>
      </trkpt>
      <trkpt lat="48.44392" lon="6.73713">
        <ele>279.4</ele>
        <time>2018-10-18T15:04:41Z</time>
      </trkpt>
      <trkpt lat="48.44359" lon="6.73731">
        <ele>279.88</ele>
        <time>2018-10-18T15:04:51Z</time>
      </trkpt>
      <trkpt lat="48.44351" lon="6.73742">
        <ele>280.36</ele>
        <time>2018-10-18T15:04:59Z</time>
      </trkpt>
      <trkpt lat="48.4435" lon="6.73753">
        <ele>279.88</ele>
        <time>2018-10-18T15:05:08Z</time>
      </trkpt>
      <trkpt lat="48.44349" lon="6.73766">
        <ele>279.88</ele>
        <time>2018-10-18T15:05:17Z</time>
      </trkpt>
      <trkpt lat="48.44348" lon="6.73781">
        <ele>279.4</ele>
        <time>2018-10-18T15:05:26Z</time>
      </trkpt>
      <trkpt lat="48.44349" lon="6.73796">
        <ele>280.36</ele>
        <time>2018-10-18T15:05:35Z</time>
      </trkpt>
      <trkpt lat="48.44353" lon="6.7381">
        <ele>279.88</ele>
        <time>2018-10-18T15:05:45Z</time>
      </trkpt>
      <trkpt lat="48.44355" lon="6.73823">
        <ele>279.4</ele>
        <time>2018-10-18T15:05:55Z</time>
      </trkpt>
      <trkpt lat="48.44347" lon="6.73835">
        <ele>279.88</ele>
        <time>2018-10-18T15:06:06Z</time>
      </trkpt>
      <trkpt lat="48.44339" lon="6.73845">
        <ele>279.88</ele>
        <time>2018-10-18T15:06:16Z</time>
      </trkpt>
      <trkpt lat="48.44332" lon="6.73857">
        <ele>279.88</ele>
        <time>2018-10-18T15:06:23Z</time>
      </trkpt>
      <trkpt lat="48.44325" lon="6.73869">
        <ele>279.88</ele>
        <time>2018-10-18T15:06:31Z</time>
      </trkpt>
      <trkpt lat="48.44323" lon="6.73881">
        <ele>279.88</ele>
        <time>2018-10-18T15:06:40Z</time>
      </trkpt>
      <trkpt lat="48.44322" lon="6.73895">
        <ele>279.88</ele>
        <time>2018-10-18T15:06:49Z</time>
      </trkpt>
      <trkpt lat="48.44318" lon="6.73913">
        <ele>280.36</ele>
        <time>2018-10-18T15:06:58Z</time>
      </trkpt>
      <trkpt lat="48.44316" lon="6.73929">
        <ele>280.36</ele>
        <time>2018-10-18T15:07:08Z</time>
      </trkpt>
      <trkpt lat="48.44312" lon="6.73936">
        <ele>280.36</ele>
        <time>2018-10-18T15:07:18Z</time>
      </trkpt>
      <trkpt lat="48.44308" lon="6.73943">
        <ele>280.84</ele>
        <time>2018-10-18T15:07:27Z</time>
      </trkpt>
      <trkpt lat="48.443" lon="6.7395">
        <ele>280.84</ele>
        <time>2018-10-18T15:07:36Z</time>
      </trkpt>
      <trkpt lat="48.44293" lon="6.73959">
        <ele>280.84</ele>
        <time>2018-10-18T15:07:45Z</time>
      </trkpt>
      <trkpt lat="48.44288" lon="6.73973">
        <ele>280.84</ele>
        <time>2018-10-18T15:07:54Z</time>
      </trkpt>
      <trkpt lat="48.44285" lon="6.73989">
        <ele>280.84</ele>
        <time>2018-10-18T15:08:03Z</time>
      </trkpt>
      <trkpt lat="48.44287" lon="6.74005">
        <ele>280.84</ele>
        <time>2018-10-18T15:08:12Z</time>
      </trkpt>
      <trkpt lat="48.44285" lon="6.74019">
        <ele>280.84</ele>
        <time>2018-10-18T15:08:21Z</time>
      </trkpt>
      <trkpt lat="48.44288" lon="6.74037">
        <ele>280.84</ele>
        <time>2018-10-18T15:08:38Z</time>
      </trkpt>
      <trkpt lat="48.44291" lon="6.74051">
        <ele>280.84</ele>
        <time>2018-10-18T15:08:47Z</time>
      </trkpt>
      <trkpt lat="48.44295" lon="6.74064">
        <ele>280.84</ele>
        <time>2018-10-18T15:08:56Z</time>
      </trkpt>
      <trkpt lat="48.44292" lon="6.74073">
        <ele>280.84</ele>
        <time>2018-10-18T15:09:13Z</time>
      </trkpt>
      <trkpt lat="48.44288" lon="6.74081">
        <ele>280.84</ele>
        <time>2018-10-18T15:09:24Z</time>
      </trkpt>
      <trkpt lat="48.4428" lon="6.74088">
        <ele>280.84</ele>
        <time>2018-10-18T15:09:34Z</time>
      </trkpt>
      <trkpt lat="48.44268" lon="6.74092">
        <ele>281.32</ele>
        <time>2018-10-18T15:09:44Z</time>
      </trkpt>
      <trkpt lat="48.44256" lon="6.741">
        <ele>281.32</ele>
        <time>2018-10-18T15:09:57Z</time>
      </trkpt>
      <trkpt lat="48.44252" lon="6.74112">
        <ele>281.8</ele>
        <time>2018-10-18T15:10:05Z</time>
      </trkpt>
      <trkpt lat="48.44252" lon="6.74127">
        <ele>281.8</ele>
        <time>2018-10-18T15:10:14Z</time>
      </trkpt>
      <trkpt lat="48.44252" lon="6.74143">
        <ele>281.8</ele>
        <time>2018-10-18T15:10:23Z</time>
      </trkpt>
      <trkpt lat="48.44254" lon="6.74159">
        <ele>281.8</ele>
        <time>2018-10-18T15:10:32Z</time>
      </trkpt>
      <trkpt lat="48.44258" lon="6.74174">
        <ele>281.8</ele>
        <time>2018-10-18T15:10:41Z</time>
      </trkpt>
      <trkpt lat="48.4426" lon="6.74187">
        <ele>281.8</ele>
        <time>2018-10-18T15:10:50Z</time>
      </trkpt>
      <trkpt lat="48.44262" lon="6.742">
        <ele>281.8</ele>
        <time>2018-10-18T15:11:01Z</time>
      </trkpt>
    </trkseg>
  </trk>
</gpx>